Home > Products > Valid Products > TAF

000
FTUS41 KCTP 270403 AAA
TAFMDT
TAF AMD
KMDT 270403Z 2704/2724 32010KT P6SM -SHRA BKN040 OVC100
     FM271000 30008KT P6SM OVC040
     FM271400 30010KT P6SM BKN060=



000
FTUS41 KCTP 270403 AAA
TAFMDT
TAF AMD
KMDT 270403Z 2704/2724 32010KT P6SM -SHRA BKN040 OVC100
     FM271000 30008KT P6SM OVC040
     FM271400 30010KT P6SM BKN060=



000
FTUS41 KCTP 270402 AAB
TAFIPT
TAF AMD
KIPT 270402Z 2704/2724 30003KT P6SM OVC020
     FM270600 30003KT P6SM OVC015
     FM271200 30007KT P6SM OVC025
     FM271600 30006KT P6SM OVC035=



000
FTUS41 KCTP 270401 AAB
TAFJST
TAF AMD
KJST 270401Z 2704/2724 30012KT 1/4SM FG OVC002
     FM270600 30010KT 2SM BR OVC002
     FM271400 31006KT P6SM OVC008
     FM271800 31006KT P6SM OVC018=



000
FTUS41 KCTP 270401 AAB
TAFJST
TAF AMD
KJST 270401Z 2704/2724 30012KT 1/4SM FG OVC002
     FM270600 30010KT 2SM BR OVC002
     FM271400 31006KT P6SM OVC008
     FM271800 31006KT P6SM OVC018=



000
FTUS41 KCTP 270401 AAB
TAFBFD
TAF AMD
KBFD 270401Z 2704/2724 31010KT 4SM BR OVC004
     FM271400 31006KT P6SM OVC015
     FM271800 31006KT P6SM OVC025=



000
FTUS41 KCTP 270401 AAB
TAFBFD
TAF AMD
KBFD 270401Z 2704/2724 31010KT 4SM BR OVC004
     FM271400 31006KT P6SM OVC015
     FM271800 31006KT P6SM OVC025=



000
FTUS41 KCTP 270401 AAB
TAFJST
TAF AMD
KJST 270401Z 2704/2724 30012KT 1/4SM FG OVC002
     FM270600 30010KT 2SM BR OVC002
     FM271400 31006KT P6SM OVC008
     FM271800 31006KT P6SM OVC018=



000
FTUS41 KCTP 270401 AAB
TAFJST
TAF AMD
KJST 270401Z 2704/2724 30012KT 1/4SM FG OVC002
     FM270600 30010KT 2SM BR OVC002
     FM271400 31006KT P6SM OVC008
     FM271800 31006KT P6SM OVC018=



000
FTUS41 KCTP 270243 AAB
TAFAOO
TAF AMD
KAOO 270243Z 2703/2724 31010KT P6SM SCT018 OVC060
      TEMPO 2703/2705 BKN018
     FM270500 31004KT P6SM BKN018 OVC060
     FM271400 31007KT P6SM OVC025
     FM271800 31006KT P6SM OVC035=



000
FTUS41 KCTP 270243 AAB
TAFAOO
TAF AMD
KAOO 270243Z 2703/2724 31010KT P6SM SCT018 OVC060
      TEMPO 2703/2705 BKN018
     FM270500 31004KT P6SM BKN018 OVC060
     FM271400 31007KT P6SM OVC025
     FM271800 31006KT P6SM OVC035=



000
FTUS41 KCTP 270243 AAB
TAFAOO
TAF AMD
KAOO 270243Z 2703/2724 31010KT P6SM SCT018 OVC060
      TEMPO 2703/2705 BKN018
     FM270500 31004KT P6SM BKN018 OVC060
     FM271400 31007KT P6SM OVC025
     FM271800 31006KT P6SM OVC035=



000
FTUS41 KCTP 270224 AAA
TAFIPT
TAF AMD
KIPT 270224Z 2702/2724 30003KT P6SM SCT100 BKN250
     FM270600 30003KT P6SM OVC015
     FM271200 30007KT P6SM OVC025
     FM271600 30006KT P6SM OVC035=



000
FTUS41 KCTP 270224 AAA
TAFIPT
TAF AMD
KIPT 270224Z 2702/2724 30003KT P6SM SCT100 BKN250
     FM270600 30003KT P6SM OVC015
     FM271200 30007KT P6SM OVC025
     FM271600 30006KT P6SM OVC035=



000
FTUS41 KCTP 270224 AAA
TAFIPT
TAF AMD
KIPT 270224Z 2702/2724 30003KT P6SM SCT100 BKN250
     FM270600 30003KT P6SM OVC015
     FM271200 30007KT P6SM OVC025
     FM271600 30006KT P6SM OVC035=



000
FTUS41 KCTP 270224 AAA
TAFIPT
TAF AMD
KIPT 270224Z 2702/2724 30003KT P6SM SCT100 BKN250
     FM270600 30003KT P6SM OVC015
     FM271200 30007KT P6SM OVC025
     FM271600 30006KT P6SM OVC035=



000
FTUS41 KCTP 270223 AAA
TAFAOO
TAF AMD
KAOO 270223Z 2702/2724 31004KT P6SM SCT015 OVC060
     FM270530 31004KT P6SM BKN018 OVC060
     FM271400 31007KT P6SM OVC025
     FM271800 31006KT P6SM OVC035=



000
FTUS41 KCTP 270223 AAA
TAFAOO
TAF AMD
KAOO 270223Z 2702/2724 31004KT P6SM SCT015 OVC060
     FM270530 31004KT P6SM BKN018 OVC060
     FM271400 31007KT P6SM OVC025
     FM271800 31006KT P6SM OVC035=



000
FTUS41 KCTP 270223 AAA
TAFUNV
TAF AMD
KUNV 270223Z 2702/2724 31006KT P6SM OVC015
     FM271400 31007KT P6SM OVC025
     FM271800 31006KT P6SM OVC035=



000
FTUS41 KCTP 270221 AAA
TAFJST
TAF AMD
KJST 270221Z 2702/2724 30012KT 1/4SM FG OVC002
     FM270400 30010KT 2SM BR OVC002
     FM271400 31006KT P6SM OVC008
     FM271800 31006KT P6SM OVC018=



000
FTUS41 KCTP 270221 AAA
TAFJST
TAF AMD
KJST 270221Z 2702/2724 30012KT 1/4SM FG OVC002
     FM270400 30010KT 2SM BR OVC002
     FM271400 31006KT P6SM OVC008
     FM271800 31006KT P6SM OVC018=



000
FTUS41 KCTP 270221 AAA
TAFJST
TAF AMD
KJST 270221Z 2702/2724 30012KT 1/4SM FG OVC002
     FM270400 30010KT 2SM BR OVC002
     FM271400 31006KT P6SM OVC008
     FM271800 31006KT P6SM OVC018=



000
FTUS41 KCTP 270221 AAA
TAFJST
TAF AMD
KJST 270221Z 2702/2724 30012KT 1/4SM FG OVC002
     FM270400 30010KT 2SM BR OVC002
     FM271400 31006KT P6SM OVC008
     FM271800 31006KT P6SM OVC018=



000
FTUS41 KCTP 270219 AAA
TAFBFD
TAF AMD
KBFD 270219Z 2702/2724 31007KT P6SM VCSH BKN008 OVC015
     FM270600 30003KT 4SM BR OVC003
     FM271400 31006KT P6SM OVC015
     FM271800 31006KT P6SM OVC025=



000
FTUS41 KCTP 270219 AAA
TAFBFD
TAF AMD
KBFD 270219Z 2702/2724 31007KT P6SM VCSH BKN008 OVC015
     FM270600 30003KT 4SM BR OVC003
     FM271400 31006KT P6SM OVC015
     FM271800 31006KT P6SM OVC025=



000
FTUS41 KCTP 262348
TAFAOO
TAF
KAOO 262348Z 2700/2724 32010KT P6SM BKN015 OVC060
     FM271400 31007KT P6SM OVC025
     FM271800 31006KT P6SM OVC035=



000
FTUS41 KCTP 262348
TAFUNV
TAF
KUNV 262348Z 2700/2724 30008KT P6SM OVC015
     FM271400 31007KT P6SM OVC025
     FM271800 31006KT P6SM OVC035=



000
FTUS41 KCTP 262348
TAFIPT
TAF
KIPT 262348Z 2700/2724 30008KT P6SM OVC020
     FM270200 30006KT P6SM OVC015
     FM271200 30007KT P6SM OVC025
     FM271600 30006KT P6SM OVC035=



000
FTUS41 KCTP 262348
TAFMDT
TAF
KMDT 262348Z 2700/2724 32012KT P6SM -SHRA BKN035 OVC060
     FM270300 30010KT P6SM OVC025
     FM271000 30008KT P6SM OVC040
     FM271400 30010KT P6SM BKN060=



000
FTUS41 KCTP 262348
TAFUNV
TAF
KUNV 262348Z 2700/2724 30008KT P6SM OVC015
     FM271400 31007KT P6SM OVC025
     FM271800 31006KT P6SM OVC035=



000
FTUS41 KCTP 262348
TAFAOO
TAF
KAOO 262348Z 2700/2724 32010KT P6SM BKN015 OVC060
     FM271400 31007KT P6SM OVC025
     FM271800 31006KT P6SM OVC035=



000
FTUS41 KCTP 262348
TAFMDT
TAF
KMDT 262348Z 2700/2724 32012KT P6SM -SHRA BKN035 OVC060
     FM270300 30010KT P6SM OVC025
     FM271000 30008KT P6SM OVC040
     FM271400 30010KT P6SM BKN060=



000
FTUS41 KCTP 262348
TAFIPT
TAF
KIPT 262348Z 2700/2724 30008KT P6SM OVC020
     FM270200 30006KT P6SM OVC015
     FM271200 30007KT P6SM OVC025
     FM271600 30006KT P6SM OVC035=



000
FTUS41 KCTP 262348
TAFAOO
TAF
KAOO 262348Z 2700/2724 32010KT P6SM BKN015 OVC060
     FM271400 31007KT P6SM OVC025
     FM271800 31006KT P6SM OVC035=



000
FTUS41 KCTP 262348
TAFMDT
TAF
KMDT 262348Z 2700/2724 32012KT P6SM -SHRA BKN035 OVC060
     FM270300 30010KT P6SM OVC025
     FM271000 30008KT P6SM OVC040
     FM271400 30010KT P6SM BKN060=



000
FTUS41 KCTP 262348
TAFAOO
TAF
KAOO 262348Z 2700/2724 32010KT P6SM BKN015 OVC060
     FM271400 31007KT P6SM OVC025
     FM271800 31006KT P6SM OVC035=



000
FTUS41 KCTP 262348
TAFUNV
TAF
KUNV 262348Z 2700/2724 30008KT P6SM OVC015
     FM271400 31007KT P6SM OVC025
     FM271800 31006KT P6SM OVC035=



000
FTUS41 KCTP 262348
TAFMDT
TAF
KMDT 262348Z 2700/2724 32012KT P6SM -SHRA BKN035 OVC060
     FM270300 30010KT P6SM OVC025
     FM271000 30008KT P6SM OVC040
     FM271400 30010KT P6SM BKN060=



000
FTUS41 KCTP 262348
TAFIPT
TAF
KIPT 262348Z 2700/2724 30008KT P6SM OVC020
     FM270200 30006KT P6SM OVC015
     FM271200 30007KT P6SM OVC025
     FM271600 30006KT P6SM OVC035=



000
FTUS41 KCTP 262348
TAFUNV
TAF
KUNV 262348Z 2700/2724 30008KT P6SM OVC015
     FM271400 31007KT P6SM OVC025
     FM271800 31006KT P6SM OVC035=



000
FTUS41 KCTP 262348
TAFIPT
TAF
KIPT 262348Z 2700/2724 30008KT P6SM OVC020
     FM270200 30006KT P6SM OVC015
     FM271200 30007KT P6SM OVC025
     FM271600 30006KT P6SM OVC035=



000
FTUS41 KCTP 262339
TAFBFD
TAF
KBFD 262339Z 2700/2724 32005KT P6SM -SHRA BKN004 OVC025
     FM270300 30003KT 4SM BR OVC003
     FM271400 31006KT P6SM OVC015
     FM271800 31006KT P6SM OVC025=



000
FTUS41 KCTP 262339
TAFBFD
TAF
KBFD 262339Z 2700/2724 32005KT P6SM -SHRA BKN004 OVC025
     FM270300 30003KT 4SM BR OVC003
     FM271400 31006KT P6SM OVC015
     FM271800 31006KT P6SM OVC025=



000
FTUS41 KCTP 262339
TAFJST
TAF
KJST 262339Z 2700/2724 32008KT 6SM -RA BR OVC006
      TEMPO 2701/2703 1 1/2SM RA OVC002
     FM270300 30007KT 4SM BR OVC002
     FM271400 31006KT P6SM OVC008
     FM271800 31006KT P6SM OVC018=



000
FTUS41 KCTP 262339
TAFJST
TAF
KJST 262339Z 2700/2724 32008KT 6SM -RA BR OVC006
      TEMPO 2701/2703 1 1/2SM RA OVC002
     FM270300 30007KT 4SM BR OVC002
     FM271400 31006KT P6SM OVC008
     FM271800 31006KT P6SM OVC018=



000
FTUS41 KCTP 262339
TAFBFD
TAF
KBFD 262339Z 2700/2724 32005KT P6SM -SHRA BKN004 OVC025
     FM270300 30003KT 4SM BR OVC003
     FM271400 31006KT P6SM OVC015
     FM271800 31006KT P6SM OVC025=



000
FTUS41 KCTP 262339
TAFBFD
TAF
KBFD 262339Z 2700/2724 32005KT P6SM -SHRA BKN004 OVC025
     FM270300 30003KT 4SM BR OVC003
     FM271400 31006KT P6SM OVC015
     FM271800 31006KT P6SM OVC025=



000
FTUS41 KCTP 262339
TAFJST
TAF
KJST 262339Z 2700/2724 32008KT 6SM -RA BR OVC006
      TEMPO 2701/2703 1 1/2SM RA OVC002
     FM270300 30007KT 4SM BR OVC002
     FM271400 31006KT P6SM OVC008
     FM271800 31006KT P6SM OVC018=



000
FTUS41 KCTP 262339
TAFJST
TAF
KJST 262339Z 2700/2724 32008KT 6SM -RA BR OVC006
      TEMPO 2701/2703 1 1/2SM RA OVC002
     FM270300 30007KT 4SM BR OVC002
     FM271400 31006KT P6SM OVC008
     FM271800 31006KT P6SM OVC018=



000
FTUS41 KCTP 262242 AAE
TAFMDT
TAF AMD
KMDT 262242Z 2623/2718 32012KT 4SM -TSRA BKN035CB OVC070
     FM262300 32008KT P6SM OVC035
     FM270400 32008KT 4SM BR OVC040
     FM271300 34006KT P6SM OVC050=



000
FTUS41 KCTP 262242 AAE
TAFMDT
TAF AMD
KMDT 262242Z 2623/2718 32012KT 4SM -TSRA BKN035CB OVC070
     FM262300 32008KT P6SM OVC035
     FM270400 32008KT 4SM BR OVC040
     FM271300 34006KT P6SM OVC050=



000
FTUS41 KCTP 262242 AAE
TAFMDT
TAF AMD
KMDT 262242Z 2623/2718 32012KT 4SM -TSRA BKN035CB OVC070
     FM262300 32008KT P6SM OVC035
     FM270400 32008KT 4SM BR OVC040
     FM271300 34006KT P6SM OVC050=



000
FTUS41 KCTP 262231 AAC
TAFIPT
TAF AMD
KIPT 262231Z 2623/2718 28006KT P6SM -RA SCT015 OVC025
     FM270200 29003KT 4SM BR OVC015
     FM270900 29003KT 6SM HZ BR OVC015
     FM271400 29004KT P6SM OVC050=



000
FTUS41 KCTP 262231 AAC
TAFIPT
TAF AMD
KIPT 262231Z 2623/2718 28006KT P6SM -RA SCT015 OVC025
     FM270200 29003KT 4SM BR OVC015
     FM270900 29003KT 6SM HZ BR OVC015
     FM271400 29004KT P6SM OVC050=



000
FTUS41 KCTP 262229 AAB
TAFUNV
TAF AMD
KUNV 262229Z 2622/2718 32006KT P6SM SCT010 BKN050 OVC080
     FM270100 32006KT 5SM BR OVC015
     FM271400 31004KT P6SM OVC050=



000
FTUS41 KCTP 262229 AAB
TAFUNV
TAF AMD
KUNV 262229Z 2622/2718 32006KT P6SM SCT010 BKN050 OVC080
     FM270100 32006KT 5SM BR OVC015
     FM271400 31004KT P6SM OVC050=



000
FTUS41 KCTP 262229 AAB
TAFUNV
TAF AMD
KUNV 262229Z 2622/2718 32006KT P6SM SCT010 BKN050 OVC080
     FM270100 32006KT 5SM BR OVC015
     FM271400 31004KT P6SM OVC050=



000
FTUS41 KCTP 262218 AAD
TAFMDT
TAF AMD
KMDT 262218Z 2622/2718 32015G25KT 1SM +TSRA BKN030CB OVC070
     FM262300 32008KT 6SM BR OVC035
     FM270400 32008KT 4SM BR OVC040
     FM271300 34006KT P6SM OVC050=



000
FTUS41 KCTP 262218 AAD
TAFMDT
TAF AMD
KMDT 262218Z 2622/2718 32015G25KT 1SM +TSRA BKN030CB OVC070
     FM262300 32008KT 6SM BR OVC035
     FM270400 32008KT 4SM BR OVC040
     FM271300 34006KT P6SM OVC050=



000
FTUS41 KCTP 262141 AAC
TAFMDT
TAF AMD
KMDT 262141Z 2622/2718 17010KT 6SM HZ VCSH SCT030 OVC070
     FM262200 32018G35KT 2SM +RA VCTS OVC030CB
     FM262300 32008KT 6SM BR OVC035
     FM270400 32008KT 4SM BR OVC040
     FM271300 34006KT P6SM OVC050=



000
FTUS41 KCTP 262141 AAC
TAFMDT
TAF AMD
KMDT 262141Z 2622/2718 17010KT 6SM HZ VCSH SCT030 OVC070
     FM262200 32018G35KT 2SM +RA VCTS OVC030CB
     FM262300 32008KT 6SM BR OVC035
     FM270400 32008KT 4SM BR OVC040
     FM271300 34006KT P6SM OVC050=



000
FTUS41 KCTP 262134 AAB
TAFMDT
TAF AMD
KMDT 262134Z 2622/2718 17008KT 6SM HZ VCSH SCT030 OVC070
     FM262150 32009G15KT 3SM -RA VCTS OVC030CB
     FM262300 32008KT 6SM BR OVC035
     FM270400 32008KT 4SM BR OVC040
     FM271300 34006KT P6SM OVC050=



000
FTUS41 KCTP 262134 AAB
TAFMDT
TAF AMD
KMDT 262134Z 2622/2718 17008KT 6SM HZ VCSH SCT030 OVC070
     FM262150 32009G15KT 3SM -RA VCTS OVC030CB
     FM262300 32008KT 6SM BR OVC035
     FM270400 32008KT 4SM BR OVC040
     FM271300 34006KT P6SM OVC050=



000
FTUS41 KCTP 262131 AAB
TAFIPT
TAF AMD
KIPT 262131Z 2622/2718 31008KT 5SM -RA BR OVC015
     FM270200 29003KT 4SM BR OVC015
     FM270900 29003KT 6SM HZ BR OVC015
     FM271400 29004KT P6SM OVC050=



000
FTUS41 KCTP 262131 AAB
TAFIPT
TAF AMD
KIPT 262131Z 2622/2718 31008KT 5SM -RA BR OVC015
     FM270200 29003KT 4SM BR OVC015
     FM270900 29003KT 6SM HZ BR OVC015
     FM271400 29004KT P6SM OVC050=



000
FTUS41 KCTP 262120 AAA
TAFUNV
TAF AMD
KUNV 262120Z 2621/2718 32006KT 5SM -SHRA BR OVC020
     FM270000 32006KT 5SM BR OVC015
     FM271400 31004KT P6SM OVC050=



000
FTUS41 KCTP 262120 AAA
TAFUNV
TAF AMD
KUNV 262120Z 2621/2718 32006KT 5SM -SHRA BR OVC020
     FM270000 32006KT 5SM BR OVC015
     FM271400 31004KT P6SM OVC050=



000
FTUS41 KCTP 262117 AAA
TAFAOO
TAF AMD
KAOO 262117Z 2621/2718 32012KT 6SM -RA OVC035
     FM270000 32008KT 6SM -RA OVC025
     FM270700 31007KT P6SM OVC025
     FM271300 32006KT P6SM OVC050=



000
FTUS41 KCTP 262114 AAB
TAFJST
TAF AMD
KJST 262114Z 2621/2718 34010KT 6SM -RA OVC003
     FM262200 30008KT 4SM -RA BR OVC003
     FM270500 30007KT 4SM BR OVC003
     FM271200 31008KT P6SM OVC015=



000
FTUS41 KCTP 262114 AAB
TAFJST
TAF AMD
KJST 262114Z 2621/2718 34010KT 6SM -RA OVC003
     FM262200 30008KT 4SM -RA BR OVC003
     FM270500 30007KT 4SM BR OVC003
     FM271200 31008KT P6SM OVC015=



000
FTUS41 KCTP 262109 AAB
TAFBFD
TAF AMD
KBFD 262109Z 2621/2718 33006KT 6SM -RA BR OVC006
     FM270000 33003KT 2SM -SN BR OVC003
     FM270200 31003KT 4SM BR OVC003
     FM271500 30006KT P6SM OVC025=



000
FTUS41 KCTP 262109 AAB
TAFBFD
TAF AMD
KBFD 262109Z 2621/2718 33006KT 6SM -RA BR OVC006
     FM270000 33003KT 2SM -SN BR OVC003
     FM270200 31003KT 4SM BR OVC003
     FM271500 30006KT P6SM OVC025=



000
FTUS41 KCTP 262109 AAB
TAFBFD
TAF AMD
KBFD 262109Z 2621/2718 33006KT 6SM -RA BR OVC006
     FM270000 33003KT 2SM -SN BR OVC003
     FM270200 31003KT 4SM BR OVC003
     FM271500 30006KT P6SM OVC025=



000
FTUS41 KCTP 262109 AAB
TAFBFD
TAF AMD
KBFD 262109Z 2621/2718 33006KT 6SM -RA BR OVC006
     FM270000 33003KT 2SM -SN BR OVC003
     FM270200 31003KT 4SM BR OVC003
     FM271500 30006KT P6SM OVC025=



000
FTUS41 KCTP 261842 AAA
TAFBFD
TAF AMD
KBFD 261842Z 2619/2718 34006KT 3SM -RA BR SCT004 OVC030
      TEMPO 2619/2623 1SM -RA BR OVC004
     FM270000 33003KT 3SM -SN BR OVC003
     FM270200 31003KT 4SM BR OVC003
     FM271500 30006KT P6SM OVC025=



000
FTUS41 KCTP 261842 AAA
TAFBFD
TAF AMD
KBFD 261842Z 2619/2718 34006KT 3SM -RA BR SCT004 OVC030
      TEMPO 2619/2623 1SM -RA BR OVC004
     FM270000 33003KT 3SM -SN BR OVC003
     FM270200 31003KT 4SM BR OVC003
     FM271500 30006KT P6SM OVC025=



000
FTUS41 KCTP 261812 AAA
TAFMDT
TAF AMD
KMDT 261812Z 2618/2718 13006KT 5SM HZ OVC021
      TEMPO 2620/2622 6SM SHRA OVC030
     FM262200 32008G15KT 3SM -SHRA VCTS OVC025CB
     FM270100 32008KT 3SM BR OVC030
     FM271200 35003KT 4SM BR OVC050
     FM271300 34006KT P6SM OVC050=



000
FTUS41 KCTP 261812 AAA
TAFMDT
TAF AMD
KMDT 261812Z 2618/2718 13006KT 5SM HZ OVC021
      TEMPO 2620/2622 6SM SHRA OVC030
     FM262200 32008G15KT 3SM -SHRA VCTS OVC025CB
     FM270100 32008KT 3SM BR OVC030
     FM271200 35003KT 4SM BR OVC050
     FM271300 34006KT P6SM OVC050=



000
FTUS41 KCTP 261812 AAA
TAFMDT
TAF AMD
KMDT 261812Z 2618/2718 13006KT 5SM HZ OVC021
      TEMPO 2620/2622 6SM SHRA OVC030
     FM262200 32008G15KT 3SM -SHRA VCTS OVC025CB
     FM270100 32008KT 3SM BR OVC030
     FM271200 35003KT 4SM BR OVC050
     FM271300 34006KT P6SM OVC050=



000
FTUS41 KCTP 261812 AAA
TAFMDT
TAF AMD
KMDT 261812Z 2618/2718 13006KT 5SM HZ OVC021
      TEMPO 2620/2622 6SM SHRA OVC030
     FM262200 32008G15KT 3SM -SHRA VCTS OVC025CB
     FM270100 32008KT 3SM BR OVC030
     FM271200 35003KT 4SM BR OVC050
     FM271300 34006KT P6SM OVC050=



000
FTUS41 KCTP 261811 AAA
TAFIPT
TAF AMD
KIPT 261811Z 2618/2718 00000KT P6SM FEW023
      TEMPO 2619/2621 4SM -RA BR OVC015
     FM262100 33005KT 2SM -RA BR OVC015
     FM270200 29003KT 4SM BR OVC015 PROB30 2706/2707 4SM -RA OVC025
     FM270900 29003KT 6SM HZ BR OVC015
     FM271400 29004KT P6SM OVC050=



000
FTUS41 KCTP 261811 AAA
TAFIPT
TAF AMD
KIPT 261811Z 2618/2718 00000KT P6SM FEW023
      TEMPO 2619/2621 4SM -RA BR OVC015
     FM262100 33005KT 2SM -RA BR OVC015
     FM270200 29003KT 4SM BR OVC015 PROB30 2706/2707 4SM -RA OVC025
     FM270900 29003KT 6SM HZ BR OVC015
     FM271400 29004KT P6SM OVC050=



000
FTUS41 KCTP 261811 AAA
TAFIPT
TAF AMD
KIPT 261811Z 2618/2718 00000KT P6SM FEW023
      TEMPO 2619/2621 4SM -RA BR OVC015
     FM262100 33005KT 2SM -RA BR OVC015
     FM270200 29003KT 4SM BR OVC015 PROB30 2706/2707 4SM -RA OVC025
     FM270900 29003KT 6SM HZ BR OVC015
     FM271400 29004KT P6SM OVC050=



000
FTUS41 KCTP 261811 AAA
TAFIPT
TAF AMD
KIPT 261811Z 2618/2718 00000KT P6SM FEW023
      TEMPO 2619/2621 4SM -RA BR OVC015
     FM262100 33005KT 2SM -RA BR OVC015
     FM270200 29003KT 4SM BR OVC015 PROB30 2706/2707 4SM -RA OVC025
     FM270900 29003KT 6SM HZ BR OVC015
     FM271400 29004KT P6SM OVC050=



000
FTUS41 KCTP 261810 AAA
TAFJST
TAF AMD
KJST 261810Z 2618/2718 29012KT P6SM FEW045 BKN070 OVC090
      TEMPO 2618/2620 26010G20KT 4SM -RA OVC045
     FM262000 27014G20KT 4SM -RA OVC025
     FM262200 30008KT 1SM BR OVC007
     FM270500 30007KT 4SM BR OVC003
     FM271200 31008KT P6SM OVC015=



000
FTUS41 KCTP 261810 AAA
TAFJST
TAF AMD
KJST 261810Z 2618/2718 29012KT P6SM FEW045 BKN070 OVC090
      TEMPO 2618/2620 26010G20KT 4SM -RA OVC045
     FM262000 27014G20KT 4SM -RA OVC025
     FM262200 30008KT 1SM BR OVC007
     FM270500 30007KT 4SM BR OVC003
     FM271200 31008KT P6SM OVC015=



000
FTUS41 KCTP 261810 AAA
TAFJST
TAF AMD
KJST 261810Z 2618/2718 29012KT P6SM FEW045 BKN070 OVC090
      TEMPO 2618/2620 26010G20KT 4SM -RA OVC045
     FM262000 27014G20KT 4SM -RA OVC025
     FM262200 30008KT 1SM BR OVC007
     FM270500 30007KT 4SM BR OVC003
     FM271200 31008KT P6SM OVC015=



000
FTUS41 KCTP 261737
TAFBFD
TAF
KBFD 261737Z 2618/2718 35005KT 2SM -RA BR BKN002 OVC030
     FM261900 32005KT 1SM -RA BR OVC008
     FM270000 33003KT 2SM -SN BR OVC003
     FM270200 31003KT 4SM BR OVC003
     FM271500 30006KT P6SM OVC025=



000
FTUS41 KCTP 261737
TAFIPT
TAF
KIPT 261737Z 2618/2718 06005KT P6SM OVC017
      TEMPO 2619/2622 4SM -RA BR OVC015
     FM262200 33005KT 2SM -RA BR OVC015
     FM270200 29003KT 4SM BR OVC015 PROB30 2706/2707 4SM -RA OVC025
     FM270900 29003KT 6SM HZ BR OVC015
     FM271400 29004KT P6SM OVC050=



000
FTUS41 KCTP 261737
TAFJST
TAF
KJST 261737Z 2618/2718 26010G20KT P6SM OVC050
      TEMPO 2618/2619 4SM -RA OVC045
     FM261900 27014G20KT 4SM -RA OVC025
     FM262200 30008KT 1SM BR OVC007
     FM270500 30007KT 4SM BR OVC003
     FM271200 31008KT P6SM OVC015=



000
FTUS41 KCTP 261737
TAFAOO
TAF
KAOO 261737Z 2618/2718 19012G16KT P6SM FEW060 SCT080
      TEMPO 2619/2621 5SM -RA BKN035
     FM262100 29010KT 4SM -RA OVC025
     FM270700 31007KT P6SM OVC025
     FM271300 32006KT P6SM OVC050=



000
FTUS41 KCTP 261737
TAFAOO
TAF
KAOO 261737Z 2618/2718 19012G16KT P6SM FEW060 SCT080
      TEMPO 2619/2621 5SM -RA BKN035
     FM262100 29010KT 4SM -RA OVC025
     FM270700 31007KT P6SM OVC025
     FM271300 32006KT P6SM OVC050=



000
FTUS41 KCTP 261737
TAFMDT
TAF
KMDT 261737Z 2618/2718 17003KT 6SM HZ BKN017 OVC120
      TEMPO 2620/2622 6SM SHRA OVC030
     FM262200 32008G15KT 3SM -SHRA VCTS OVC025CB
     FM270100 32008KT 3SM BR OVC030
     FM271200 35003KT 4SM BR OVC050
     FM271300 34006KT P6SM OVC050=



000
FTUS41 KCTP 261737
TAFUNV
TAF
KUNV 261737Z 2618/2718 00000KT P6SM SCT050 SCT060
      TEMPO 2619/2621 4SM -SHRA BR OVC025
     FM262100 31006KT 4SM -RA BR OVC025
     FM270100 31006KT 5SM BR OVC035
     FM271400 31004KT P6SM OVC050=



000
FTUS41 KCTP 261737
TAFUNV
TAF
KUNV 261737Z 2618/2718 00000KT P6SM SCT050 SCT060
      TEMPO 2619/2621 4SM -SHRA BR OVC025
     FM262100 31006KT 4SM -RA BR OVC025
     FM270100 31006KT 5SM BR OVC035
     FM271400 31004KT P6SM OVC050=



000
FTUS41 KCTP 261737
TAFJST
TAF
KJST 261737Z 2618/2718 26010G20KT P6SM OVC050
      TEMPO 2618/2619 4SM -RA OVC045
     FM261900 27014G20KT 4SM -RA OVC025
     FM262200 30008KT 1SM BR OVC007
     FM270500 30007KT 4SM BR OVC003
     FM271200 31008KT P6SM OVC015=



000
FTUS41 KCTP 261737
TAFIPT
TAF
KIPT 261737Z 2618/2718 06005KT P6SM OVC017
      TEMPO 2619/2622 4SM -RA BR OVC015
     FM262200 33005KT 2SM -RA BR OVC015
     FM270200 29003KT 4SM BR OVC015 PROB30 2706/2707 4SM -RA OVC025
     FM270900 29003KT 6SM HZ BR OVC015
     FM271400 29004KT P6SM OVC050=



000
FTUS41 KCTP 261737
TAFAOO
TAF
KAOO 261737Z 2618/2718 19012G16KT P6SM FEW060 SCT080
      TEMPO 2619/2621 5SM -RA BKN035
     FM262100 29010KT 4SM -RA OVC025
     FM270700 31007KT P6SM OVC025
     FM271300 32006KT P6SM OVC050=



000
FTUS41 KCTP 261737
TAFIPT
TAF
KIPT 261737Z 2618/2718 06005KT P6SM OVC017
      TEMPO 2619/2622 4SM -RA BR OVC015
     FM262200 33005KT 2SM -RA BR OVC015
     FM270200 29003KT 4SM BR OVC015 PROB30 2706/2707 4SM -RA OVC025
     FM270900 29003KT 6SM HZ BR OVC015
     FM271400 29004KT P6SM OVC050=



000
FTUS41 KCTP 261737
TAFUNV
TAF
KUNV 261737Z 2618/2718 00000KT P6SM SCT050 SCT060
      TEMPO 2619/2621 4SM -SHRA BR OVC025
     FM262100 31006KT 4SM -RA BR OVC025
     FM270100 31006KT 5SM BR OVC035
     FM271400 31004KT P6SM OVC050=



000
FTUS41 KCTP 261737
TAFBFD
TAF
KBFD 261737Z 2618/2718 35005KT 2SM -RA BR BKN002 OVC030
     FM261900 32005KT 1SM -RA BR OVC008
     FM270000 33003KT 2SM -SN BR OVC003
     FM270200 31003KT 4SM BR OVC003
     FM271500 30006KT P6SM OVC025=



000
FTUS41 KCTP 261737
TAFIPT
TAF
KIPT 261737Z 2618/2718 06005KT P6SM OVC017
      TEMPO 2619/2622 4SM -RA BR OVC015
     FM262200 33005KT 2SM -RA BR OVC015
     FM270200 29003KT 4SM BR OVC015 PROB30 2706/2707 4SM -RA OVC025
     FM270900 29003KT 6SM HZ BR OVC015
     FM271400 29004KT P6SM OVC050=



000
FTUS41 KCTP 261737
TAFBFD
TAF
KBFD 261737Z 2618/2718 35005KT 2SM -RA BR BKN002 OVC030
     FM261900 32005KT 1SM -RA BR OVC008
     FM270000 33003KT 2SM -SN BR OVC003
     FM270200 31003KT 4SM BR OVC003
     FM271500 30006KT P6SM OVC025=



000
FTUS41 KCTP 261737
TAFBFD
TAF
KBFD 261737Z 2618/2718 35005KT 2SM -RA BR BKN002 OVC030
     FM261900 32005KT 1SM -RA BR OVC008
     FM270000 33003KT 2SM -SN BR OVC003
     FM270200 31003KT 4SM BR OVC003
     FM271500 30006KT P6SM OVC025=



000
FTUS41 KCTP 261737
TAFMDT
TAF
KMDT 261737Z 2618/2718 17003KT 6SM HZ BKN017 OVC120
      TEMPO 2620/2622 6SM SHRA OVC030
     FM262200 32008G15KT 3SM -SHRA VCTS OVC025CB
     FM270100 32008KT 3SM BR OVC030
     FM271200 35003KT 4SM BR OVC050
     FM271300 34006KT P6SM OVC050=



000
FTUS41 KCTP 261737
TAFUNV
TAF
KUNV 261737Z 2618/2718 00000KT P6SM SCT050 SCT060
      TEMPO 2619/2621 4SM -SHRA BR OVC025
     FM262100 31006KT 4SM -RA BR OVC025
     FM270100 31006KT 5SM BR OVC035
     FM271400 31004KT P6SM OVC050=



000
FTUS41 KCTP 261737
TAFMDT
TAF
KMDT 261737Z 2618/2718 17003KT 6SM HZ BKN017 OVC120
      TEMPO 2620/2622 6SM SHRA OVC030
     FM262200 32008G15KT 3SM -SHRA VCTS OVC025CB
     FM270100 32008KT 3SM BR OVC030
     FM271200 35003KT 4SM BR OVC050
     FM271300 34006KT P6SM OVC050=



000
FTUS41 KCTP 261737
TAFMDT
TAF
KMDT 261737Z 2618/2718 17003KT 6SM HZ BKN017 OVC120
      TEMPO 2620/2622 6SM SHRA OVC030
     FM262200 32008G15KT 3SM -SHRA VCTS OVC025CB
     FM270100 32008KT 3SM BR OVC030
     FM271200 35003KT 4SM BR OVC050
     FM271300 34006KT P6SM OVC050=



000
FTUS41 KCTP 261737
TAFJST
TAF
KJST 261737Z 2618/2718 26010G20KT P6SM OVC050
      TEMPO 2618/2619 4SM -RA OVC045
     FM261900 27014G20KT 4SM -RA OVC025
     FM262200 30008KT 1SM BR OVC007
     FM270500 30007KT 4SM BR OVC003
     FM271200 31008KT P6SM OVC015=



000
FTUS41 KCTP 261737
TAFAOO
TAF
KAOO 261737Z 2618/2718 19012G16KT P6SM FEW060 SCT080
      TEMPO 2619/2621 5SM -RA BKN035
     FM262100 29010KT 4SM -RA OVC025
     FM270700 31007KT P6SM OVC025
     FM271300 32006KT P6SM OVC050=



000
FTUS41 KCTP 261737
TAFJST
TAF
KJST 261737Z 2618/2718 26010G20KT P6SM OVC050
      TEMPO 2618/2619 4SM -RA OVC045
     FM261900 27014G20KT 4SM -RA OVC025
     FM262200 30008KT 1SM BR OVC007
     FM270500 30007KT 4SM BR OVC003
     FM271200 31008KT P6SM OVC015=



000
FTUS41 KCTP 261538 AAB
TAFIPT
TAF AMD
KIPT 261538Z 2616/2712 06008KT 6SM HZ OVC019
     FM262100 32005KT 5SM -SHRA OVC019
     FM270300 31004KT 2SM BR OVC015
     FM270900 31004KT P6SM OVC035=



000
FTUS41 KCTP 261538 AAC
TAFBFD
TAF AMD
KBFD 261538Z 2616/2712 35006KT 2SM -RA BR OVC003
      TEMPO 2619/2623 3SM -SHRA BR OVC012
     FM262300 32007KT 3SM -RA BR OVC005
     FM270300 33007KT 3SM -SN BR OVC008
     FM270700 30007KT P6SM -SN OVC012=



000
FTUS41 KCTP 261538 AAC
TAFMDT
TAF AMD
KMDT 261538Z 2616/2712 16004KT 4SM HZ OVC016
      TEMPO 2616/2618 P6SM NSW SCT025 BKN035
     FM262200 29010KT 5SM -SHRA VCTS BKN035CB
     FM270100 32009KT P6SM BKN035
     FM270900 32007KT 4SM BR OVC035=



000
FTUS41 KCTP 261538 AAB
TAFJST
TAF AMD
KJST 261538Z 2616/2712 21010G15KT P6SM -RA FEW040 BKN050 OVC090
     FM262000 29011G18KT 3SM -SHRA BR OVC009
     FM270000 31008G12KT 3SM -RA BR OVC009
     FM270500 31008G16KT 3SM -SN BR OVC012
     FM270900 32007KT P6SM -SN OVC015=



000
FTUS41 KCTP 261538 AAC
TAFBFD
TAF AMD
KBFD 261538Z 2616/2712 35006KT 2SM -RA BR OVC003
      TEMPO 2619/2623 3SM -SHRA BR OVC012
     FM262300 32007KT 3SM -RA BR OVC005
     FM270300 33007KT 3SM -SN BR OVC008
     FM270700 30007KT P6SM -SN OVC012=



000
FTUS41 KCTP 261538 AAB
TAFJST
TAF AMD
KJST 261538Z 2616/2712 21010G15KT P6SM -RA FEW040 BKN050 OVC090
     FM262000 29011G18KT 3SM -SHRA BR OVC009
     FM270000 31008G12KT 3SM -RA BR OVC009
     FM270500 31008G16KT 3SM -SN BR OVC012
     FM270900 32007KT P6SM -SN OVC015=



000
FTUS41 KCTP 261538 AAB
TAFUNV
TAF AMD
KUNV 261538Z 2616/2712 00000KT 5SM BR SCT060 OVC090
      TEMPO 2618/2620 P6SM NSW SCT090
     FM262000 26008G15KT 5SM -SHRA BKN025
     FM262200 32008G15KT 4SM -RA BR OVC019
     FM270100 33008G15KT 2SM -RA BR OVC015
     FM270900 31007KT P6SM OVC035=



000
FTUS41 KCTP 261538 AAA
TAFAOO
TAF AMD
KAOO 261538Z 2616/2712 VRB04KT P6SM FEW090
     FM262000 27008G15KT P6SM -SHRA BKN025
     FM262300 30008G15KT 3SM -RA BR OVC025
     FM270100 32008G15KT 3SM -RA BR OVC015
     FM270700 32007KT P6SM OVC035=



000
FTUS41 KCTP 261538 AAB
TAFUNV
TAF AMD
KUNV 261538Z 2616/2712 00000KT 5SM BR SCT060 OVC090
      TEMPO 2618/2620 P6SM NSW SCT090
     FM262000 26008G15KT 5SM -SHRA BKN025
     FM262200 32008G15KT 4SM -RA BR OVC019
     FM270100 33008G15KT 2SM -RA BR OVC015
     FM270900 31007KT P6SM OVC035=



000
FTUS41 KCTP 261538 AAA
TAFAOO
TAF AMD
KAOO 261538Z 2616/2712 VRB04KT P6SM FEW090
     FM262000 27008G15KT P6SM -SHRA BKN025
     FM262300 30008G15KT 3SM -RA BR OVC025
     FM270100 32008G15KT 3SM -RA BR OVC015
     FM270700 32007KT P6SM OVC035=



000
FTUS41 KCTP 261538 AAC
TAFMDT
TAF AMD
KMDT 261538Z 2616/2712 16004KT 4SM HZ OVC016
      TEMPO 2616/2618 P6SM NSW SCT025 BKN035
     FM262200 29010KT 5SM -SHRA VCTS BKN035CB
     FM270100 32009KT P6SM BKN035
     FM270900 32007KT 4SM BR OVC035=



000
FTUS41 KCTP 261538 AAB
TAFIPT
TAF AMD
KIPT 261538Z 2616/2712 06008KT 6SM HZ OVC019
     FM262100 32005KT 5SM -SHRA OVC019
     FM270300 31004KT 2SM BR OVC015
     FM270900 31004KT P6SM OVC035=



000
FTUS41 KCTP 261538 AAB
TAFIPT
TAF AMD
KIPT 261538Z 2616/2712 06008KT 6SM HZ OVC019
     FM262100 32005KT 5SM -SHRA OVC019
     FM270300 31004KT 2SM BR OVC015
     FM270900 31004KT P6SM OVC035=



000
FTUS41 KCTP 261538 AAB
TAFJST
TAF AMD
KJST 261538Z 2616/2712 21010G15KT P6SM -RA FEW040 BKN050 OVC090
     FM262000 29011G18KT 3SM -SHRA BR OVC009
     FM270000 31008G12KT 3SM -RA BR OVC009
     FM270500 31008G16KT 3SM -SN BR OVC012
     FM270900 32007KT P6SM -SN OVC015=



000
FTUS41 KCTP 261538 AAC
TAFBFD
TAF AMD
KBFD 261538Z 2616/2712 35006KT 2SM -RA BR OVC003
      TEMPO 2619/2623 3SM -SHRA BR OVC012
     FM262300 32007KT 3SM -RA BR OVC005
     FM270300 33007KT 3SM -SN BR OVC008
     FM270700 30007KT P6SM -SN OVC012=



000
FTUS41 KCTP 261538 AAC
TAFMDT
TAF AMD
KMDT 261538Z 2616/2712 16004KT 4SM HZ OVC016
      TEMPO 2616/2618 P6SM NSW SCT025 BKN035
     FM262200 29010KT 5SM -SHRA VCTS BKN035CB
     FM270100 32009KT P6SM BKN035
     FM270900 32007KT 4SM BR OVC035=



000
FTUS41 KCTP 261538 AAA
TAFAOO
TAF AMD
KAOO 261538Z 2616/2712 VRB04KT P6SM FEW090
     FM262000 27008G15KT P6SM -SHRA BKN025
     FM262300 30008G15KT 3SM -RA BR OVC025
     FM270100 32008G15KT 3SM -RA BR OVC015
     FM270700 32007KT P6SM OVC035=



000
FTUS41 KCTP 261538 AAB
TAFUNV
TAF AMD
KUNV 261538Z 2616/2712 00000KT 5SM BR SCT060 OVC090
      TEMPO 2618/2620 P6SM NSW SCT090
     FM262000 26008G15KT 5SM -SHRA BKN025
     FM262200 32008G15KT 4SM -RA BR OVC019
     FM270100 33008G15KT 2SM -RA BR OVC015
     FM270900 31007KT P6SM OVC035=



000
FTUS41 KCTP 261518 AAA
TAFUNV
TAF AMD
KUNV 261518Z 2615/2712 00000KT 5SM BR SCT060 OVC090
      TEMPO 2615/2618 P6SM NSW SCT090
     FM261900 23008G15KT P6SM -SHRA BKN035
     FM262200 32008G15KT 4SM -RA BR OVC025
     FM270100 33008G15KT 2SM -RA BR OVC015
     FM270800 32007KT P6SM OVC020=



000
FTUS41 KCTP 261518 AAA
TAFUNV
TAF AMD
KUNV 261518Z 2615/2712 00000KT 5SM BR SCT060 OVC090
      TEMPO 2615/2618 P6SM NSW SCT090
     FM261900 23008G15KT P6SM -SHRA BKN035
     FM262200 32008G15KT 4SM -RA BR OVC025
     FM270100 33008G15KT 2SM -RA BR OVC015
     FM270800 32007KT P6SM OVC020=



000
FTUS41 KCTP 261516 AAB
TAFMDT
TAF AMD
KMDT 261516Z 2615/2712 16004KT 4SM HZ OVC016
      TEMPO 2616/2618 P6SM NSW SCT025 BKN035
     FM262200 21008KT P6SM -SHRA BKN035
     FM270400 32008G15KT 4SM -RA BR OVC025=



000
FTUS41 KCTP 261516 AAB
TAFMDT
TAF AMD
KMDT 261516Z 2615/2712 16004KT 4SM HZ OVC016
      TEMPO 2616/2618 P6SM NSW SCT025 BKN035
     FM262200 21008KT P6SM -SHRA BKN035
     FM270400 32008G15KT 4SM -RA BR OVC025=



000
FTUS41 KCTP 261515 AAB
TAFBFD
TAF AMD
KBFD 261515Z 2615/2712 35006KT 2SM -RA BR OVC003
      TEMPO 2615/2617 3SM -SHRA BR OVC012
     FM262300 32007KT 2SM -RA BR OVC005
     FM270300 33007KT 3SM -SN BR OVC008
     FM270700 32007KT P6SM -SN OVC012=



000
FTUS41 KCTP 261515 AAB
TAFBFD
TAF AMD
KBFD 261515Z 2615/2712 35006KT 2SM -RA BR OVC003
      TEMPO 2615/2617 3SM -SHRA BR OVC012
     FM262300 32007KT 2SM -RA BR OVC005
     FM270300 33007KT 3SM -SN BR OVC008
     FM270700 32007KT P6SM -SN OVC012=



000
FTUS41 KCTP 261514 AAA
TAFJST
TAF AMD
KJST 261514Z 2615/2712 21010G15KT P6SM -RA FEW040 BKN050 OVC090
     FM261600 19008G15KT 5SM -SHRA BR OVC025
     FM270000 32008G15KT 2SM -RA BR OVC009
     FM270500 33008G16KT 3SM -SN BR OVC012
     FM270800 32007KT P6SM -SN OVC015=



000
FTUS41 KCTP 261514 AAA
TAFJST
TAF AMD
KJST 261514Z 2615/2712 21010G15KT P6SM -RA FEW040 BKN050 OVC090
     FM261600 19008G15KT 5SM -SHRA BR OVC025
     FM270000 32008G15KT 2SM -RA BR OVC009
     FM270500 33008G16KT 3SM -SN BR OVC012
     FM270800 32007KT P6SM -SN OVC015=



000
FTUS41 KCTP 261514 AAA
TAFJST
TAF AMD
KJST 261514Z 2615/2712 21010G15KT P6SM -RA FEW040 BKN050 OVC090
     FM261600 19008G15KT 5SM -SHRA BR OVC025
     FM270000 32008G15KT 2SM -RA BR OVC009
     FM270500 33008G16KT 3SM -SN BR OVC012
     FM270800 32007KT P6SM -SN OVC015=



000
FTUS41 KCTP 261359 AAA
TAFMDT
TAF AMD
KMDT 261359Z 2614/2712 00000KT 3SM BR OVC018
      TEMPO 2614/2617 P6SM NSW SCT025 BKN035
     FM262300 21008KT P6SM -SHRA BKN035
     FM270400 32008G15KT 4SM -RA BR OVC025=



000
FTUS41 KCTP 261335 AAA
TAFBFD
TAF AMD
KBFD 261335Z 2614/2712 00000KT 1SM RA BR FEW002 OVC040
      TEMPO 2614/2615 2SM -SHRA BR OVC007
     FM261500 14005KT 3SM -SHRA BR OVC010
     FM262300 32007KT 2SM -RA BR OVC005
     FM270300 33007KT 3SM -SN BR OVC008
     FM270700 32007KT P6SM -SN OVC012=



000
FTUS41 KCTP 261335 AAA
TAFBFD
TAF AMD
KBFD 261335Z 2614/2712 00000KT 1SM RA BR FEW002 OVC040
      TEMPO 2614/2615 2SM -SHRA BR OVC007
     FM261500 14005KT 3SM -SHRA BR OVC010
     FM262300 32007KT 2SM -RA BR OVC005
     FM270300 33007KT 3SM -SN BR OVC008
     FM270700 32007KT P6SM -SN OVC012=



000
FTUS41 KCTP 261218 RRA
TAFBFD
TAF
KBFD 261218Z 2612/2712 VRB05KT 1/4SM FG OVC005
      TEMPO 2613/2615 1SM -SHRA BR OVC007
     FM261500 14005KT 3SM -SHRA BR OVC010
     FM262300 32007KT 2SM -RA BR OVC005
     FM270300 33007KT 3SM -SN BR OVC008
     FM270700 32007KT P6SM -SN OVC012=



000
FTUS41 KCTP 261218 RRA
TAFBFD
TAF
KBFD 261218Z 2612/2712 VRB05KT 1/4SM FG OVC005
      TEMPO 2613/2615 1SM -SHRA BR OVC007
     FM261500 14005KT 3SM -SHRA BR OVC010
     FM262300 32007KT 2SM -RA BR OVC005
     FM270300 33007KT 3SM -SN BR OVC008
     FM270700 32007KT P6SM -SN OVC012=



000
FTUS41 KCTP 261218 RRA
TAFBFD
TAF
KBFD 261218Z 2612/2712 VRB05KT 1/4SM FG OVC005
      TEMPO 2613/2615 1SM -SHRA BR OVC007
     FM261500 14005KT 3SM -SHRA BR OVC010
     FM262300 32007KT 2SM -RA BR OVC005
     FM270300 33007KT 3SM -SN BR OVC008
     FM270700 32007KT P6SM -SN OVC012=



000
FTUS41 KCTP 261218 RRA
TAFBFD
TAF
KBFD 261218Z 2612/2712 VRB05KT 1/4SM FG OVC005
      TEMPO 2613/2615 1SM -SHRA BR OVC007
     FM261500 14005KT 3SM -SHRA BR OVC010
     FM262300 32007KT 2SM -RA BR OVC005
     FM270300 33007KT 3SM -SN BR OVC008
     FM270700 32007KT P6SM -SN OVC012=



000
FTUS41 KCTP 261216 AAA
TAFIPT
TAF AMD
KIPT 261216Z 2612/2712 VRB04KT 2SM BR BKN110
     FM261400 15007KT P6SM BKN080
     FM262100 15008G15KT P6SM -SHRA BKN035
     FM270000 31008G15KT 4SM -RA BR OVC025
     FM270300 32008G15KT 2SM -RA BR OVC015
     FM270800 31007KT P6SM OVC020=



000
FTUS41 KCTP 261216 AAA
TAFIPT
TAF AMD
KIPT 261216Z 2612/2712 VRB04KT 2SM BR BKN110
     FM261400 15007KT P6SM BKN080
     FM262100 15008G15KT P6SM -SHRA BKN035
     FM270000 31008G15KT 4SM -RA BR OVC025
     FM270300 32008G15KT 2SM -RA BR OVC015
     FM270800 31007KT P6SM OVC020=



000
FTUS41 KCTP 261216 AAA
TAFIPT
TAF AMD
KIPT 261216Z 2612/2712 VRB04KT 2SM BR BKN110
     FM261400 15007KT P6SM BKN080
     FM262100 15008G15KT P6SM -SHRA BKN035
     FM270000 31008G15KT 4SM -RA BR OVC025
     FM270300 32008G15KT 2SM -RA BR OVC015
     FM270800 31007KT P6SM OVC020=



000
FTUS41 KCTP 261131
TAFBFD
TAF
KBFD 261131Z 2612/2712 VRB05KT 1/4SM FG OVC006
     FM261500 14005KT 3SM -SHRA BR OVC010
     FM262300 32007KT 2SM -RA BR OVC005
     FM270300 33007KT 3SM -SN BR OVC008
     FM270700 32007KT P6SM -SN OVC012=



000
FTUS41 KCTP 261131
TAFJST
TAF
KJST 261131Z 2612/2712 18007KT P6SM BKN060
     FM261600 19008G15KT 5SM -SHRA BR OVC025
     FM270000 32008G15KT 2SM -RA BR OVC009
     FM270500 33008G16KT 3SM -SN BR OVC012
     FM270800 32007KT P6SM -SN OVC015=



000
FTUS41 KCTP 261131
TAFJST
TAF
KJST 261131Z 2612/2712 18007KT P6SM BKN060
     FM261600 19008G15KT 5SM -SHRA BR OVC025
     FM270000 32008G15KT 2SM -RA BR OVC009
     FM270500 33008G16KT 3SM -SN BR OVC012
     FM270800 32007KT P6SM -SN OVC015=



000
FTUS41 KCTP 261131
TAFBFD
TAF
KBFD 261131Z 2612/2712 VRB05KT 1/4SM FG OVC006
     FM261500 14005KT 3SM -SHRA BR OVC010
     FM262300 32007KT 2SM -RA BR OVC005
     FM270300 33007KT 3SM -SN BR OVC008
     FM270700 32007KT P6SM -SN OVC012=



000
FTUS41 KCTP 261131
TAFAOO
TAF
KAOO 261131Z 2612/2712 VRB04KT 4SM BR BKN070
     FM261400 19005KT P6SM BKN070
     FM262000 22008G15KT P6SM -SHRA BKN035
     FM262300 32008G15KT 4SM -RA BR OVC025
     FM270100 33008G15KT 2SM -RA BR OVC015
     FM270800 32007KT P6SM OVC020=



000
FTUS41 KCTP 261131
TAFIPT
TAF
KIPT 261131Z 2612/2712 VRB05KT 1SM BR BKN080
     FM261400 15007KT P6SM BKN080
     FM262100 15008G15KT P6SM -SHRA BKN035
     FM270000 31008G15KT 4SM -RA BR OVC025
     FM270300 32008G15KT 2SM -RA BR OVC015
     FM270800 31007KT P6SM OVC020=



000
FTUS41 KCTP 261131
TAFUNV
TAF
KUNV 261131Z 2612/2712 VRB04KT 4SM BR BKN070
     FM261400 25005KT P6SM BKN070
     FM261900 23008G15KT P6SM -SHRA BKN035
     FM262200 32008G15KT 4SM -RA BR OVC025
     FM270100 33008G15KT 2SM -RA BR OVC015
     FM270800 32007KT P6SM OVC020=



000
FTUS41 KCTP 261131
TAFUNV
TAF
KUNV 261131Z 2612/2712 VRB04KT 4SM BR BKN070
     FM261400 25005KT P6SM BKN070
     FM261900 23008G15KT P6SM -SHRA BKN035
     FM262200 32008G15KT 4SM -RA BR OVC025
     FM270100 33008G15KT 2SM -RA BR OVC015
     FM270800 32007KT P6SM OVC020=



000
FTUS41 KCTP 261131
TAFAOO
TAF
KAOO 261131Z 2612/2712 VRB04KT 4SM BR BKN070
     FM261400 19005KT P6SM BKN070
     FM262000 22008G15KT P6SM -SHRA BKN035
     FM262300 32008G15KT 4SM -RA BR OVC025
     FM270100 33008G15KT 2SM -RA BR OVC015
     FM270800 32007KT P6SM OVC020=



000
FTUS41 KCTP 261131
TAFBFD
TAF
KBFD 261131Z 2612/2712 VRB05KT 1/4SM FG OVC006
     FM261500 14005KT 3SM -SHRA BR OVC010
     FM262300 32007KT 2SM -RA BR OVC005
     FM270300 33007KT 3SM -SN BR OVC008
     FM270700 32007KT P6SM -SN OVC012=



000
FTUS41 KCTP 261131
TAFBFD
TAF
KBFD 261131Z 2612/2712 VRB05KT 1/4SM FG OVC006
     FM261500 14005KT 3SM -SHRA BR OVC010
     FM262300 32007KT 2SM -RA BR OVC005
     FM270300 33007KT 3SM -SN BR OVC008
     FM270700 32007KT P6SM -SN OVC012=



000
FTUS41 KCTP 261131
TAFUNV
TAF
KUNV 261131Z 2612/2712 VRB04KT 4SM BR BKN070
     FM261400 25005KT P6SM BKN070
     FM261900 23008G15KT P6SM -SHRA BKN035
     FM262200 32008G15KT 4SM -RA BR OVC025
     FM270100 33008G15KT 2SM -RA BR OVC015
     FM270800 32007KT P6SM OVC020=



000
FTUS41 KCTP 261131
TAFMDT
TAF
KMDT 261131Z 2612/2712 VRB05KT P6SM SCT250
     FM261400 17007KT P6SM SCT035
     FM262300 21008KT P6SM -SHRA BKN035
     FM270400 32008G15KT 4SM -RA BR OVC025=



000
FTUS41 KCTP 261131
TAFMDT
TAF
KMDT 261131Z 2612/2712 VRB05KT P6SM SCT250
     FM261400 17007KT P6SM SCT035
     FM262300 21008KT P6SM -SHRA BKN035
     FM270400 32008G15KT 4SM -RA BR OVC025=



000
FTUS41 KCTP 261131
TAFAOO
TAF
KAOO 261131Z 2612/2712 VRB04KT 4SM BR BKN070
     FM261400 19005KT P6SM BKN070
     FM262000 22008G15KT P6SM -SHRA BKN035
     FM262300 32008G15KT 4SM -RA BR OVC025
     FM270100 33008G15KT 2SM -RA BR OVC015
     FM270800 32007KT P6SM OVC020=



000
FTUS41 KCTP 261131
TAFIPT
TAF
KIPT 261131Z 2612/2712 VRB05KT 1SM BR BKN080
     FM261400 15007KT P6SM BKN080
     FM262100 15008G15KT P6SM -SHRA BKN035
     FM270000 31008G15KT 4SM -RA BR OVC025
     FM270300 32008G15KT 2SM -RA BR OVC015
     FM270800 31007KT P6SM OVC020=



000
FTUS41 KCTP 261131
TAFMDT
TAF
KMDT 261131Z 2612/2712 VRB05KT P6SM SCT250
     FM261400 17007KT P6SM SCT035
     FM262300 21008KT P6SM -SHRA BKN035
     FM270400 32008G15KT 4SM -RA BR OVC025=



000
FTUS41 KCTP 261131
TAFIPT
TAF
KIPT 261131Z 2612/2712 VRB05KT 1SM BR BKN080
     FM261400 15007KT P6SM BKN080
     FM262100 15008G15KT P6SM -SHRA BKN035
     FM270000 31008G15KT 4SM -RA BR OVC025
     FM270300 32008G15KT 2SM -RA BR OVC015
     FM270800 31007KT P6SM OVC020=



000
FTUS41 KCTP 261131
TAFMDT
TAF
KMDT 261131Z 2612/2712 VRB05KT P6SM SCT250
     FM261400 17007KT P6SM SCT035
     FM262300 21008KT P6SM -SHRA BKN035
     FM270400 32008G15KT 4SM -RA BR OVC025=



000
FTUS41 KCTP 261131
TAFAOO
TAF
KAOO 261131Z 2612/2712 VRB04KT 4SM BR BKN070
     FM261400 19005KT P6SM BKN070
     FM262000 22008G15KT P6SM -SHRA BKN035
     FM262300 32008G15KT 4SM -RA BR OVC025
     FM270100 33008G15KT 2SM -RA BR OVC015
     FM270800 32007KT P6SM OVC020=



000
FTUS41 KCTP 261131
TAFIPT
TAF
KIPT 261131Z 2612/2712 VRB05KT 1SM BR BKN080
     FM261400 15007KT P6SM BKN080
     FM262100 15008G15KT P6SM -SHRA BKN035
     FM270000 31008G15KT 4SM -RA BR OVC025
     FM270300 32008G15KT 2SM -RA BR OVC015
     FM270800 31007KT P6SM OVC020=



000
FTUS41 KCTP 261131
TAFUNV
TAF
KUNV 261131Z 2612/2712 VRB04KT 4SM BR BKN070
     FM261400 25005KT P6SM BKN070
     FM261900 23008G15KT P6SM -SHRA BKN035
     FM262200 32008G15KT 4SM -RA BR OVC025
     FM270100 33008G15KT 2SM -RA BR OVC015
     FM270800 32007KT P6SM OVC020=



000
FTUS41 KCTP 261131
TAFJST
TAF
KJST 261131Z 2612/2712 18007KT P6SM BKN060
     FM261600 19008G15KT 5SM -SHRA BR OVC025
     FM270000 32008G15KT 2SM -RA BR OVC009
     FM270500 33008G16KT 3SM -SN BR OVC012
     FM270800 32007KT P6SM -SN OVC015=



000
FTUS41 KCTP 261131
TAFJST
TAF
KJST 261131Z 2612/2712 18007KT P6SM BKN060
     FM261600 19008G15KT 5SM -SHRA BR OVC025
     FM270000 32008G15KT 2SM -RA BR OVC009
     FM270500 33008G16KT 3SM -SN BR OVC012
     FM270800 32007KT P6SM -SN OVC015=



000
FTUS41 KCTP 261018 AAB
TAFAOO
TAF AMD
KAOO 261018Z 2610/2706 VRB04KT 5SM BR SCT100
     FM261400 19005KT P6SM SCT060
     FM262000 22008G15KT P6SM -SHRA BKN035
     FM262300 32008G15KT 4SM -RA BR OVC025
     FM270100 33008G15KT 2SM -RA BR OVC015=



000
FTUS41 KCTP 261018 AAB
TAFAOO
TAF AMD
KAOO 261018Z 2610/2706 VRB04KT 5SM BR SCT100
     FM261400 19005KT P6SM SCT060
     FM262000 22008G15KT P6SM -SHRA BKN035
     FM262300 32008G15KT 4SM -RA BR OVC025
     FM270100 33008G15KT 2SM -RA BR OVC015=



000
FTUS41 KCTP 260936 AAA
TAFBFD
TAF AMD
KBFD 260936Z 2610/2706 VRB05KT 1SM BR OVC008
     FM261400 14005KT 2SM -RA BR OVC005
     FM262300 32007KT 2SM -RA BR OVC005
     FM270300 33007KT 3SM -SN BR OVC008=



000
FTUS41 KCTP 260936 AAA
TAFAOO
TAF AMD
KAOO 260936Z 2610/2706 19005KT P6SM SCT060
     FM262000 22008G15KT P6SM -SHRA BKN035
     FM262300 32008G15KT 4SM -RA BR OVC025
     FM270100 33008G15KT 2SM -RA BR OVC015=



000
FTUS41 KCTP 260936 AAA
TAFJST
TAF AMD
KJST 260936Z 2610/2706 18007KT P6SM BKN060
     FM261400 19008G15KT 5SM -SHRA BR OVC018
     FM270000 32008G15KT 2SM -RA BR OVC009
     FM270500 33008G16KT 3SM -SN BR OVC012=



000
FTUS41 KCTP 260936 AAA
TAFJST
TAF AMD
KJST 260936Z 2610/2706 18007KT P6SM BKN060
     FM261400 19008G15KT 5SM -SHRA BR OVC018
     FM270000 32008G15KT 2SM -RA BR OVC009
     FM270500 33008G16KT 3SM -SN BR OVC012=



000
FTUS41 KCTP 260936 AAA
TAFBFD
TAF AMD
KBFD 260936Z 2610/2706 VRB05KT 1SM BR OVC008
     FM261400 14005KT 2SM -RA BR OVC005
     FM262300 32007KT 2SM -RA BR OVC005
     FM270300 33007KT 3SM -SN BR OVC008=



000
FTUS41 KCTP 260936 AAB
TAFMDT
TAF AMD
KMDT 260936Z 2610/2706 VRB05KT 4SM BR SCT250
     FM261400 17007KT P6SM SCT035
     FM262300 21008KT P6SM -SHRA BKN035
     FM270400 32008G15KT 4SM -RA BR OVC025=



000
FTUS41 KCTP 260936 AAB
TAFUNV
TAF AMD
KUNV 260936Z 2610/2706 VRB04KT 5SM BR SCT250
     FM261400 25005KT P6SM SCT060
     FM261900 23008G15KT P6SM -SHRA BKN035
     FM262200 32008G15KT 4SM -RA BR OVC025
     FM270100 33008G15KT 2SM -RA BR OVC015=



000
FTUS41 KCTP 260936 AAB
TAFMDT
TAF AMD
KMDT 260936Z 2610/2706 VRB05KT 4SM BR SCT250
     FM261400 17007KT P6SM SCT035
     FM262300 21008KT P6SM -SHRA BKN035
     FM270400 32008G15KT 4SM -RA BR OVC025=



000
FTUS41 KCTP 260936 AAB
TAFUNV
TAF AMD
KUNV 260936Z 2610/2706 VRB04KT 5SM BR SCT250
     FM261400 25005KT P6SM SCT060
     FM261900 23008G15KT P6SM -SHRA BKN035
     FM262200 32008G15KT 4SM -RA BR OVC025
     FM270100 33008G15KT 2SM -RA BR OVC015=



000
FTUS41 KCTP 260936 AAB
TAFIPT
TAF AMD
KIPT 260936Z 2610/2706 VRB05KT 3SM BR SCT250
     FM261400 15007KT P6SM BKN050
     FM262100 15008G15KT P6SM -SHRA BKN035
     FM270000 31008G15KT 4SM -RA BR OVC025
     FM270300 32008G15KT 2SM -RA BR OVC015=



000
FTUS41 KCTP 260936 AAA
TAFAOO
TAF AMD
KAOO 260936Z 2610/2706 19005KT P6SM SCT060
     FM262000 22008G15KT P6SM -SHRA BKN035
     FM262300 32008G15KT 4SM -RA BR OVC025
     FM270100 33008G15KT 2SM -RA BR OVC015=



000
FTUS41 KCTP 260936 AAB
TAFIPT
TAF AMD
KIPT 260936Z 2610/2706 VRB05KT 3SM BR SCT250
     FM261400 15007KT P6SM BKN050
     FM262100 15008G15KT P6SM -SHRA BKN035
     FM270000 31008G15KT 4SM -RA BR OVC025
     FM270300 32008G15KT 2SM -RA BR OVC015=



000
FTUS41 KCTP 260810 AAA
TAFIPT
TAF AMD
KIPT 260810Z 2608/2706 VRB05KT 5SM BR SCT250
     FM261400 15007KT P6SM BKN050
     FM262100 15008G15KT P6SM -SHRA BKN035
     FM270000 31008G15KT 4SM -RA BR OVC025
     FM270300 32008G15KT 2SM -RA BR OVC015=



000
FTUS41 KCTP 260810 AAA
TAFIPT
TAF AMD
KIPT 260810Z 2608/2706 VRB05KT 5SM BR SCT250
     FM261400 15007KT P6SM BKN050
     FM262100 15008G15KT P6SM -SHRA BKN035
     FM270000 31008G15KT 4SM -RA BR OVC025
     FM270300 32008G15KT 2SM -RA BR OVC015=



000
FTUS41 KCTP 260810 AAA
TAFIPT
TAF AMD
KIPT 260810Z 2608/2706 VRB05KT 5SM BR SCT250
     FM261400 15007KT P6SM BKN050
     FM262100 15008G15KT P6SM -SHRA BKN035
     FM270000 31008G15KT 4SM -RA BR OVC025
     FM270300 32008G15KT 2SM -RA BR OVC015=



000
FTUS41 KCTP 260810 AAA
TAFIPT
TAF AMD
KIPT 260810Z 2608/2706 VRB05KT 5SM BR SCT250
     FM261400 15007KT P6SM BKN050
     FM262100 15008G15KT P6SM -SHRA BKN035
     FM270000 31008G15KT 4SM -RA BR OVC025
     FM270300 32008G15KT 2SM -RA BR OVC015=



000
FTUS41 KCTP 260722 AAA
TAFMDT
TAF AMD
KMDT 260722Z 2607/2706 10006KT P6SM SCT250
     FM260900 12005KT 4SM BR SCT025
     FM261500 17007KT P6SM SCT035
     FM262300 21008KT P6SM -SHRA BKN035
     FM270400 32008G15KT 4SM -RA BR OVC025=



000
FTUS41 KCTP 260722 AAA
TAFMDT
TAF AMD
KMDT 260722Z 2607/2706 10006KT P6SM SCT250
     FM260900 12005KT 4SM BR SCT025
     FM261500 17007KT P6SM SCT035
     FM262300 21008KT P6SM -SHRA BKN035
     FM270400 32008G15KT 4SM -RA BR OVC025=



000
FTUS41 KCTP 260722 AAA
TAFUNV
TAF AMD
KUNV 260722Z 2607/2706 VRB04KT 5SM BR SCT250
     FM261400 25005KT P6SM SCT060
     FM261900 23008G15KT P6SM -SHRA BKN035
     FM262200 32008G15KT 4SM -RA BR OVC025
     FM270100 33008G15KT 2SM -RA BR OVC015=



000
FTUS41 KCTP 260722 AAA
TAFUNV
TAF AMD
KUNV 260722Z 2607/2706 VRB04KT 5SM BR SCT250
     FM261400 25005KT P6SM SCT060
     FM261900 23008G15KT P6SM -SHRA BKN035
     FM262200 32008G15KT 4SM -RA BR OVC025
     FM270100 33008G15KT 2SM -RA BR OVC015=



000
FTUS41 KCTP 260722 AAA
TAFMDT
TAF AMD
KMDT 260722Z 2607/2706 10006KT P6SM SCT250
     FM260900 12005KT 4SM BR SCT025
     FM261500 17007KT P6SM SCT035
     FM262300 21008KT P6SM -SHRA BKN035
     FM270400 32008G15KT 4SM -RA BR OVC025=



000
FTUS41 KCTP 260722 AAA
TAFMDT
TAF AMD
KMDT 260722Z 2607/2706 10006KT P6SM SCT250
     FM260900 12005KT 4SM BR SCT025
     FM261500 17007KT P6SM SCT035
     FM262300 21008KT P6SM -SHRA BKN035
     FM270400 32008G15KT 4SM -RA BR OVC025=



000
FTUS41 KCTP 260538
TAFAOO
TAF
KAOO 260538Z 2606/2706 19005KT P6SM SCT060
     FM262000 22008G15KT P6SM -SHRA BKN035
     FM262300 32008G15KT 4SM -RA BR OVC025
     FM270100 33008G15KT 2SM -RA BR OVC015=



000
FTUS41 KCTP 260538
TAFIPT
TAF
KIPT 260538Z 2606/2706 15007KT P6SM BKN050
     FM262100 15008G15KT P6SM -SHRA BKN035
     FM270000 31008G15KT 4SM -RA BR OVC025
     FM270300 32008G15KT 2SM -RA BR OVC015=



000
FTUS41 KCTP 260538
TAFBFD
TAF
KBFD 260538Z 2606/2706 12005KT 1/4SM FZFG OVC005
     FM261400 14005KT 2SM -RA BR OVC005
     FM262300 32007KT 2SM -RA BR OVC005
     FM270300 33007KT 3SM -SN BR OVC008=



000
FTUS41 KCTP 260538
TAFUNV
TAF
KUNV 260538Z 2606/2706 25005KT P6SM SCT060
     FM261900 23008G15KT P6SM -SHRA BKN035
     FM262200 32008G15KT 4SM -RA BR OVC025
     FM270100 33008G15KT 2SM -RA BR OVC015=



000
FTUS41 KCTP 260538
TAFJST
TAF
KJST 260538Z 2606/2706 18007KT P6SM SCT250
     FM261400 19008G15KT 5SM -SHRA BR OVC018
     FM270000 32008G15KT 2SM -RA BR OVC009
     FM270500 33008G16KT 3SM -SN BR OVC012=



000
FTUS41 KCTP 260538
TAFMDT
TAF
KMDT 260538Z 2606/2706 10006KT P6SM BKN025
     FM260800 12005KT 4SM BR SCT025
     FM261500 17007KT P6SM SCT035
     FM262300 21008KT P6SM -SHRA BKN035
     FM270400 32008G15KT 4SM -RA BR OVC025=



000
FTUS41 KCTP 260538
TAFAOO
TAF
KAOO 260538Z 2606/2706 19005KT P6SM SCT060
     FM262000 22008G15KT P6SM -SHRA BKN035
     FM262300 32008G15KT 4SM -RA BR OVC025
     FM270100 33008G15KT 2SM -RA BR OVC015=



000
FTUS41 KCTP 260538
TAFIPT
TAF
KIPT 260538Z 2606/2706 15007KT P6SM BKN050
     FM262100 15008G15KT P6SM -SHRA BKN035
     FM270000 31008G15KT 4SM -RA BR OVC025
     FM270300 32008G15KT 2SM -RA BR OVC015=



000
FTUS41 KCTP 260538
TAFBFD
TAF
KBFD 260538Z 2606/2706 12005KT 1/4SM FZFG OVC005
     FM261400 14005KT 2SM -RA BR OVC005
     FM262300 32007KT 2SM -RA BR OVC005
     FM270300 33007KT 3SM -SN BR OVC008=



000
FTUS41 KCTP 260538
TAFJST
TAF
KJST 260538Z 2606/2706 18007KT P6SM SCT250
     FM261400 19008G15KT 5SM -SHRA BR OVC018
     FM270000 32008G15KT 2SM -RA BR OVC009
     FM270500 33008G16KT 3SM -SN BR OVC012=



000
FTUS41 KCTP 260538
TAFMDT
TAF
KMDT 260538Z 2606/2706 10006KT P6SM BKN025
     FM260800 12005KT 4SM BR SCT025
     FM261500 17007KT P6SM SCT035
     FM262300 21008KT P6SM -SHRA BKN035
     FM270400 32008G15KT 4SM -RA BR OVC025=



000
FTUS41 KCTP 260538
TAFAOO
TAF
KAOO 260538Z 2606/2706 19005KT P6SM SCT060
     FM262000 22008G15KT P6SM -SHRA BKN035
     FM262300 32008G15KT 4SM -RA BR OVC025
     FM270100 33008G15KT 2SM -RA BR OVC015=



000
FTUS41 KCTP 260538
TAFIPT
TAF
KIPT 260538Z 2606/2706 15007KT P6SM BKN050
     FM262100 15008G15KT P6SM -SHRA BKN035
     FM270000 31008G15KT 4SM -RA BR OVC025
     FM270300 32008G15KT 2SM -RA BR OVC015=



000
FTUS41 KCTP 260538
TAFJST
TAF
KJST 260538Z 2606/2706 18007KT P6SM SCT250
     FM261400 19008G15KT 5SM -SHRA BR OVC018
     FM270000 32008G15KT 2SM -RA BR OVC009
     FM270500 33008G16KT 3SM -SN BR OVC012=



000
FTUS41 KCTP 260538
TAFBFD
TAF
KBFD 260538Z 2606/2706 12005KT 1/4SM FZFG OVC005
     FM261400 14005KT 2SM -RA BR OVC005
     FM262300 32007KT 2SM -RA BR OVC005
     FM270300 33007KT 3SM -SN BR OVC008=



000
FTUS41 KCTP 260538
TAFUNV
TAF
KUNV 260538Z 2606/2706 25005KT P6SM SCT060
     FM261900 23008G15KT P6SM -SHRA BKN035
     FM262200 32008G15KT 4SM -RA BR OVC025
     FM270100 33008G15KT 2SM -RA BR OVC015=



000
FTUS41 KCTP 260538
TAFMDT
TAF
KMDT 260538Z 2606/2706 10006KT P6SM BKN025
     FM260800 12005KT 4SM BR SCT025
     FM261500 17007KT P6SM SCT035
     FM262300 21008KT P6SM -SHRA BKN035
     FM270400 32008G15KT 4SM -RA BR OVC025=



000
FTUS41 KCTP 260538
TAFUNV
TAF
KUNV 260538Z 2606/2706 25005KT P6SM SCT060
     FM261900 23008G15KT P6SM -SHRA BKN035
     FM262200 32008G15KT 4SM -RA BR OVC025
     FM270100 33008G15KT 2SM -RA BR OVC015=



000
FTUS41 KCTP 260538
TAFAOO
TAF
KAOO 260538Z 2606/2706 19005KT P6SM SCT060
     FM262000 22008G15KT P6SM -SHRA BKN035
     FM262300 32008G15KT 4SM -RA BR OVC025
     FM270100 33008G15KT 2SM -RA BR OVC015=



000
FTUS41 KCTP 260538
TAFBFD
TAF
KBFD 260538Z 2606/2706 12005KT 1/4SM FZFG OVC005
     FM261400 14005KT 2SM -RA BR OVC005
     FM262300 32007KT 2SM -RA BR OVC005
     FM270300 33007KT 3SM -SN BR OVC008=



000
FTUS41 KCTP 260538
TAFIPT
TAF
KIPT 260538Z 2606/2706 15007KT P6SM BKN050
     FM262100 15008G15KT P6SM -SHRA BKN035
     FM270000 31008G15KT 4SM -RA BR OVC025
     FM270300 32008G15KT 2SM -RA BR OVC015=



000
FTUS41 KCTP 260538
TAFUNV
TAF
KUNV 260538Z 2606/2706 25005KT P6SM SCT060
     FM261900 23008G15KT P6SM -SHRA BKN035
     FM262200 32008G15KT 4SM -RA BR OVC025
     FM270100 33008G15KT 2SM -RA BR OVC015=



000
FTUS41 KCTP 260538
TAFMDT
TAF
KMDT 260538Z 2606/2706 10006KT P6SM BKN025
     FM260800 12005KT 4SM BR SCT025
     FM261500 17007KT P6SM SCT035
     FM262300 21008KT P6SM -SHRA BKN035
     FM270400 32008G15KT 4SM -RA BR OVC025=



000
FTUS41 KCTP 260538
TAFJST
TAF
KJST 260538Z 2606/2706 18007KT P6SM SCT250
     FM261400 19008G15KT 5SM -SHRA BR OVC018
     FM270000 32008G15KT 2SM -RA BR OVC009
     FM270500 33008G16KT 3SM -SN BR OVC012=



000
FTUS41 KCTP 260442 AAB
TAFBFD
TAF AMD
KBFD 260442Z 2605/2624 16003KT 1/4SM FG OVC005
     FM260530 22005KT 2SM BR OVC005
     FM261400 17005KT 2SM -RA BR OVC005=



000
FTUS41 KCTP 260442 AAB
TAFBFD
TAF AMD
KBFD 260442Z 2605/2624 16003KT 1/4SM FG OVC005
     FM260530 22005KT 2SM BR OVC005
     FM261400 17005KT 2SM -RA BR OVC005=



000
FTUS41 KCTP 260442 AAB
TAFBFD
TAF AMD
KBFD 260442Z 2605/2624 16003KT 1/4SM FG OVC005
     FM260530 22005KT 2SM BR OVC005
     FM261400 17005KT 2SM -RA BR OVC005=



000
FTUS41 KCTP 260329 AAA
TAFMDT
TAF AMD
KMDT 260329Z 2603/2624 10006KT P6SM OVC025
     FM260700 12003KT 4SM BR OVC018
     FM262000 22009KT 6SM -SHRA BR OVC015=



000
FTUS41 KCTP 260329 AAA
TAFMDT
TAF AMD
KMDT 260329Z 2603/2624 10006KT P6SM OVC025
     FM260700 12003KT 4SM BR OVC018
     FM262000 22009KT 6SM -SHRA BR OVC015=



000
FTUS41 KCTP 260328 AAA
TAFUNV
TAF AMD
KUNV 260328Z 2603/2624 17004KT P6SM BKN060
     FM260700 19006KT P6SM OVC025
     FM260900 19006KT 6SM BR OVC018
     FM261100 17006KT 6SM BR VCSH OVC015
     FM261800 22012KT 4SM -RA BR OVC015=



000
FTUS41 KCTP 260328 AAA
TAFUNV
TAF AMD
KUNV 260328Z 2603/2624 17004KT P6SM BKN060
     FM260700 19006KT P6SM OVC025
     FM260900 19006KT 6SM BR OVC018
     FM261100 17006KT 6SM BR VCSH OVC015
     FM261800 22012KT 4SM -RA BR OVC015=



000
FTUS41 KCTP 260328 AAA
TAFUNV
TAF AMD
KUNV 260328Z 2603/2624 17004KT P6SM BKN060
     FM260700 19006KT P6SM OVC025
     FM260900 19006KT 6SM BR OVC018
     FM261100 17006KT 6SM BR VCSH OVC015
     FM261800 22012KT 4SM -RA BR OVC015=



000
FTUS41 KCTP 260328 AAA
TAFUNV
TAF AMD
KUNV 260328Z 2603/2624 17004KT P6SM BKN060
     FM260700 19006KT P6SM OVC025
     FM260900 19006KT 6SM BR OVC018
     FM261100 17006KT 6SM BR VCSH OVC015
     FM261800 22012KT 4SM -RA BR OVC015=



000
FTUS41 KCTP 260327 AAA
TAFJST
TAF AMD
KJST 260327Z 2603/2624 17008KT P6SM BKN050
     FM260600 19008KT P6SM OVC018
     FM260900 20008KT 6SM BR VCSH OVC009
     FM261700 22012G20KT 4SM -RA BR OVC015=



000
FTUS41 KCTP 260327 AAA
TAFJST
TAF AMD
KJST 260327Z 2603/2624 17008KT P6SM BKN050
     FM260600 19008KT P6SM OVC018
     FM260900 20008KT 6SM BR VCSH OVC009
     FM261700 22012G20KT 4SM -RA BR OVC015=



000
FTUS41 KCTP 260327 AAA
TAFJST
TAF AMD
KJST 260327Z 2603/2624 17008KT P6SM BKN050
     FM260600 19008KT P6SM OVC018
     FM260900 20008KT 6SM BR VCSH OVC009
     FM261700 22012G20KT 4SM -RA BR OVC015=



000
FTUS41 KCTP 260238 AAA
TAFIPT
TAF AMD
KIPT 260238Z 2603/2624 05009G16KT P6SM BKN050
     FM260430 07008KT P6SM OVC025
     FM260800 07008KT 6SM BR OVC018
     FM261200 09006KT 6SM BR VCSH OVC015
     FM261800 22009KT 4SM -RA BR OVC015=



000
FTUS41 KCTP 260238 AAA
TAFIPT
TAF AMD
KIPT 260238Z 2603/2624 05009G16KT P6SM BKN050
     FM260430 07008KT P6SM OVC025
     FM260800 07008KT 6SM BR OVC018
     FM261200 09006KT 6SM BR VCSH OVC015
     FM261800 22009KT 4SM -RA BR OVC015=



000
FTUS41 KCTP 260238 AAA
TAFIPT
TAF AMD
KIPT 260238Z 2603/2624 05009G16KT P6SM BKN050
     FM260430 07008KT P6SM OVC025
     FM260800 07008KT 6SM BR OVC018
     FM261200 09006KT 6SM BR VCSH OVC015
     FM261800 22009KT 4SM -RA BR OVC015=



000
FTUS41 KCTP 260236 AAA
TAFAOO
TAF AMD
KAOO 260236Z 2603/2624 17004KT P6SM BKN060
     FM260600 17003KT P6SM OVC025
     FM261030 17006KT 6SM BR VCSH OVC015
     FM261700 20012G20KT 4SM -RA BR OVC025=



000
FTUS41 KCTP 260236 AAA
TAFAOO
TAF AMD
KAOO 260236Z 2603/2624 17004KT P6SM BKN060
     FM260600 17003KT P6SM OVC025
     FM261030 17006KT 6SM BR VCSH OVC015
     FM261700 20012G20KT 4SM -RA BR OVC025=



000
FTUS41 KCTP 260235 AAA
TAFBFD
TAF AMD
KBFD 260235Z 2603/2624 16003KT 1/4SM FG OVC006
     FM260530 22005KT 2SM BR OVC005
     FM261400 17005KT 2SM -RA BR OVC005=



000
FTUS41 KCTP 260235 AAA
TAFBFD
TAF AMD
KBFD 260235Z 2603/2624 16003KT 1/4SM FG OVC006
     FM260530 22005KT 2SM BR OVC005
     FM261400 17005KT 2SM -RA BR OVC005=



000
FTUS41 KCTP 252349
TAFMDT
TAF
KMDT 252349Z 2600/2624 14006KT P6SM OVC030
     FM260900 14003KT 4SM BR OVC018
     FM262000 22009KT 6SM -SHRA BR OVC015=



000
FTUS41 KCTP 252349
TAFBFD
TAF
KBFD 252349Z 2600/2624 17006KT 4SM BR SCT012 OVC020
     FM260200 20005KT 4SM BR OVC012
     FM260900 22005KT 4SM BR OVC009
     FM261400 17005KT 2SM -RA BR OVC005=



000
FTUS41 KCTP 252349
TAFUNV
TAF
KUNV 252349Z 2600/2624 17007KT P6SM BKN060
     FM260500 19006KT P6SM OVC025
     FM260800 19006KT 6SM BR OVC018
     FM261100 17006KT 6SM BR VCSH OVC015
     FM261800 22012KT 4SM -RA BR OVC015=



000
FTUS41 KCTP 252349
TAFIPT
TAF
KIPT 252349Z 2600/2624 05010KT P6SM BKN070
     FM260400 07008KT P6SM OVC025
     FM260800 07008KT 6SM BR OVC018
     FM261200 09006KT 6SM BR VCSH OVC015
     FM261800 22009KT 4SM -RA BR OVC015=



000
FTUS41 KCTP 252349
TAFAOO
TAF
KAOO 252349Z 2600/2624 16012KT P6SM BKN060
     FM260600 17006KT P6SM OVC025
     FM261030 17006KT 6SM BR VCSH OVC015
     FM261700 20012G20KT 4SM -RA BR OVC025=



000
FTUS41 KCTP 252349
TAFJST
TAF
KJST 252349Z 2600/2624 15010KT P6SM BKN050
     FM260430 19008KT P6SM OVC015
     FM260900 20008KT 6SM BR VCSH OVC009
     FM261700 22012G20KT 4SM -RA BR OVC015=



000
FTUS41 KCTP 252349
TAFJST
TAF
KJST 252349Z 2600/2624 15010KT P6SM BKN050
     FM260430 19008KT P6SM OVC015
     FM260900 20008KT 6SM BR VCSH OVC009
     FM261700 22012G20KT 4SM -RA BR OVC015=



000
FTUS41 KCTP 252349
TAFBFD
TAF
KBFD 252349Z 2600/2624 17006KT 4SM BR SCT012 OVC020
     FM260200 20005KT 4SM BR OVC012
     FM260900 22005KT 4SM BR OVC009
     FM261400 17005KT 2SM -RA BR OVC005=



000
FTUS41 KCTP 252349
TAFMDT
TAF
KMDT 252349Z 2600/2624 14006KT P6SM OVC030
     FM260900 14003KT 4SM BR OVC018
     FM262000 22009KT 6SM -SHRA BR OVC015=



000
FTUS41 KCTP 252349
TAFUNV
TAF
KUNV 252349Z 2600/2624 17007KT P6SM BKN060
     FM260500 19006KT P6SM OVC025
     FM260800 19006KT 6SM BR OVC018
     FM261100 17006KT 6SM BR VCSH OVC015
     FM261800 22012KT 4SM -RA BR OVC015=



000
FTUS41 KCTP 252349
TAFIPT
TAF
KIPT 252349Z 2600/2624 05010KT P6SM BKN070
     FM260400 07008KT P6SM OVC025
     FM260800 07008KT 6SM BR OVC018
     FM261200 09006KT 6SM BR VCSH OVC015
     FM261800 22009KT 4SM -RA BR OVC015=



000
FTUS41 KCTP 252349
TAFAOO
TAF
KAOO 252349Z 2600/2624 16012KT P6SM BKN060
     FM260600 17006KT P6SM OVC025
     FM261030 17006KT 6SM BR VCSH OVC015
     FM261700 20012G20KT 4SM -RA BR OVC025=



000
FTUS41 KCTP 252349
TAFJST
TAF
KJST 252349Z 2600/2624 15010KT P6SM BKN050
     FM260430 19008KT P6SM OVC015
     FM260900 20008KT 6SM BR VCSH OVC009
     FM261700 22012G20KT 4SM -RA BR OVC015=



000
FTUS41 KCTP 252349
TAFMDT
TAF
KMDT 252349Z 2600/2624 14006KT P6SM OVC030
     FM260900 14003KT 4SM BR OVC018
     FM262000 22009KT 6SM -SHRA BR OVC015=



000
FTUS41 KCTP 252349
TAFAOO
TAF
KAOO 252349Z 2600/2624 16012KT P6SM BKN060
     FM260600 17006KT P6SM OVC025
     FM261030 17006KT 6SM BR VCSH OVC015
     FM261700 20012G20KT 4SM -RA BR OVC025=



000
FTUS41 KCTP 252349
TAFBFD
TAF
KBFD 252349Z 2600/2624 17006KT 4SM BR SCT012 OVC020
     FM260200 20005KT 4SM BR OVC012
     FM260900 22005KT 4SM BR OVC009
     FM261400 17005KT 2SM -RA BR OVC005=



000
FTUS41 KCTP 252349
TAFIPT
TAF
KIPT 252349Z 2600/2624 05010KT P6SM BKN070
     FM260400 07008KT P6SM OVC025
     FM260800 07008KT 6SM BR OVC018
     FM261200 09006KT 6SM BR VCSH OVC015
     FM261800 22009KT 4SM -RA BR OVC015=



000
FTUS41 KCTP 252349
TAFUNV
TAF
KUNV 252349Z 2600/2624 17007KT P6SM BKN060
     FM260500 19006KT P6SM OVC025
     FM260800 19006KT 6SM BR OVC018
     FM261100 17006KT 6SM BR VCSH OVC015
     FM261800 22012KT 4SM -RA BR OVC015=



000
FTUS41 KCTP 252349
TAFMDT
TAF
KMDT 252349Z 2600/2624 14006KT P6SM OVC030
     FM260900 14003KT 4SM BR OVC018
     FM262000 22009KT 6SM -SHRA BR OVC015=



000
FTUS41 KCTP 252349
TAFJST
TAF
KJST 252349Z 2600/2624 15010KT P6SM BKN050
     FM260430 19008KT P6SM OVC015
     FM260900 20008KT 6SM BR VCSH OVC009
     FM261700 22012G20KT 4SM -RA BR OVC015=



000
FTUS41 KCTP 252349
TAFAOO
TAF
KAOO 252349Z 2600/2624 16012KT P6SM BKN060
     FM260600 17006KT P6SM OVC025
     FM261030 17006KT 6SM BR VCSH OVC015
     FM261700 20012G20KT 4SM -RA BR OVC025=



000
FTUS41 KCTP 252349
TAFBFD
TAF
KBFD 252349Z 2600/2624 17006KT 4SM BR SCT012 OVC020
     FM260200 20005KT 4SM BR OVC012
     FM260900 22005KT 4SM BR OVC009
     FM261400 17005KT 2SM -RA BR OVC005=



000
FTUS41 KCTP 252349
TAFIPT
TAF
KIPT 252349Z 2600/2624 05010KT P6SM BKN070
     FM260400 07008KT P6SM OVC025
     FM260800 07008KT 6SM BR OVC018
     FM261200 09006KT 6SM BR VCSH OVC015
     FM261800 22009KT 4SM -RA BR OVC015=



000
FTUS41 KCTP 252349
TAFUNV
TAF
KUNV 252349Z 2600/2624 17007KT P6SM BKN060
     FM260500 19006KT P6SM OVC025
     FM260800 19006KT 6SM BR OVC018
     FM261100 17006KT 6SM BR VCSH OVC015
     FM261800 22012KT 4SM -RA BR OVC015=



000
FTUS41 KCTP 252159 AAB
TAFJST
TAF AMD
KJST 252159Z 2522/2618 17010G18KT P6SM BKN040
     FM260000 21008KT P6SM BKN045
     FM260300 23008KT 5SM BR OVC015
     FM261200 17008KT 3SM BR VCSH OVC008=



000
FTUS41 KCTP 252159 AAB
TAFBFD
TAF AMD
KBFD 252159Z 2522/2618 17008KT 4SM BR SCT009 OVC015 WS020/21040KT
     FM260000 23005KT 4SM BR OVC007
     FM260900 24005KT 5SM BR OVC020
     FM261400 14005KT 5SM -RA BR OVC015=



000
FTUS41 KCTP 252159 AAB
TAFAOO
TAF AMD
KAOO 252159Z 2522/2618 17010G18KT P6SM SCT060
     FM260000 18006KT P6SM SCT025 BKN060
     FM260600 20005KT 4SM BR OVC025
     FM261500 20009KT P6SM VCSH OVC015=



000
FTUS41 KCTP 252159 AAA
TAFUNV
TAF AMD
KUNV 252159Z 2522/2618 19009KT P6SM SCT060
     FM260000 18006KT P6SM SCT025 BKN060
     FM260600 24005KT P6SM OVC030
     FM261500 22005KT P6SM VCSH OVC015=



000
FTUS41 KCTP 252159 AAB
TAFBFD
TAF AMD
KBFD 252159Z 2522/2618 17008KT 4SM BR SCT009 OVC015 WS020/21040KT
     FM260000 23005KT 4SM BR OVC007
     FM260900 24005KT 5SM BR OVC020
     FM261400 14005KT 5SM -RA BR OVC015=



000
FTUS41 KCTP 252159 AAB
TAFJST
TAF AMD
KJST 252159Z 2522/2618 17010G18KT P6SM BKN040
     FM260000 21008KT P6SM BKN045
     FM260300 23008KT 5SM BR OVC015
     FM261200 17008KT 3SM BR VCSH OVC008=



000
FTUS41 KCTP 252159 AAB
TAFAOO
TAF AMD
KAOO 252159Z 2522/2618 17010G18KT P6SM SCT060
     FM260000 18006KT P6SM SCT025 BKN060
     FM260600 20005KT 4SM BR OVC025
     FM261500 20009KT P6SM VCSH OVC015=



000
FTUS41 KCTP 252159 AAB
TAFMDT
TAF AMD
KMDT 252159Z 2522/2618 14008KT P6SM OVC035
     FM260300 VRB03KT P6SM BKN030
     FM261100 VRB03KT 3SM BR VCSH OVC010
     FM261500 17005KT 5SM BR OVC015=



000
FTUS41 KCTP 252159 AAA
TAFUNV
TAF AMD
KUNV 252159Z 2522/2618 19009KT P6SM SCT060
     FM260000 18006KT P6SM SCT025 BKN060
     FM260600 24005KT P6SM OVC030
     FM261500 22005KT P6SM VCSH OVC015=



000
FTUS41 KCTP 252159 AAB
TAFMDT
TAF AMD
KMDT 252159Z 2522/2618 14008KT P6SM OVC035
     FM260300 VRB03KT P6SM BKN030
     FM261100 VRB03KT 3SM BR VCSH OVC010
     FM261500 17005KT 5SM BR OVC015=



000
FTUS41 KCTP 252159 AAA
TAFIPT
TAF AMD
KIPT 252159Z 2522/2618 07009KT P6SM BKN030 OVC060
     FM260000 10005KT P6SM BKN060
     FM261200 VRB03KT 4SM BR OVC015
     FM261500 VRB03KT P6SM VCSH OVC010=



000
FTUS41 KCTP 252159 AAA
TAFIPT
TAF AMD
KIPT 252159Z 2522/2618 07009KT P6SM BKN030 OVC060
     FM260000 10005KT P6SM BKN060
     FM261200 VRB03KT 4SM BR OVC015
     FM261500 VRB03KT P6SM VCSH OVC010=



000
FTUS41 KCTP 251953 AAA
TAFMDT
TAF AMD
KMDT 251953Z 2520/2618 14008KT P6SM VCSH OVC040
     FM260300 VRB03KT P6SM BKN030
     FM261100 VRB03KT 3SM BR VCSH OVC010
     FM261500 17005KT 5SM BR OVC015=



000
FTUS41 KCTP 251953 AAA
TAFMDT
TAF AMD
KMDT 251953Z 2520/2618 14008KT P6SM VCSH OVC040
     FM260300 VRB03KT P6SM BKN030
     FM261100 VRB03KT 3SM BR VCSH OVC010
     FM261500 17005KT 5SM BR OVC015=



000
FTUS41 KCTP 251947 AAA
TAFAOO
TAF AMD
KAOO 251947Z 2520/2618 17010G20KT P6SM BKN025
     FM260000 22004KT 5SM BR OVC015
     FM260600 20005KT 4SM BR OVC025
     FM261500 20009KT P6SM VCSH OVC015=



000
FTUS41 KCTP 251947 AAA
TAFAOO
TAF AMD
KAOO 251947Z 2520/2618 17010G20KT P6SM BKN025
     FM260000 22004KT 5SM BR OVC015
     FM260600 20005KT 4SM BR OVC025
     FM261500 20009KT P6SM VCSH OVC015=



000
FTUS41 KCTP 251944 AAA
TAFJST
TAF AMD
KJST 251944Z 2520/2618 17010G20KT P6SM VCSH BKN040
     FM260000 21008KT P6SM BKN045
     FM260300 23008KT 5SM BR OVC015
     FM261200 17008KT 3SM BR VCSH OVC008=



000
FTUS41 KCTP 251944 AAA
TAFJST
TAF AMD
KJST 251944Z 2520/2618 17010G20KT P6SM VCSH BKN040
     FM260000 21008KT P6SM BKN045
     FM260300 23008KT 5SM BR OVC015
     FM261200 17008KT 3SM BR VCSH OVC008=



000
FTUS41 KCTP 251944 AAA
TAFJST
TAF AMD
KJST 251944Z 2520/2618 17010G20KT P6SM VCSH BKN040
     FM260000 21008KT P6SM BKN045
     FM260300 23008KT 5SM BR OVC015
     FM261200 17008KT 3SM BR VCSH OVC008=



000
FTUS41 KCTP 251944 AAA
TAFJST
TAF AMD
KJST 251944Z 2520/2618 17010G20KT P6SM VCSH BKN040
     FM260000 21008KT P6SM BKN045
     FM260300 23008KT 5SM BR OVC015
     FM261200 17008KT 3SM BR VCSH OVC008=



000
FTUS41 KCTP 251939 AAA
TAFBFD
TAF AMD
KBFD 251939Z 2520/2618 17008G18KT 5SM -DZ BR OVC005 WS020/21040KT
     FM260000 23005KT 4SM BR OVC007
     FM260900 24005KT 5SM BR OVC020
     FM261400 14005KT 5SM -RA BR OVC015=



000
FTUS41 KCTP 251939 AAA
TAFBFD
TAF AMD
KBFD 251939Z 2520/2618 17008G18KT 5SM -DZ BR OVC005 WS020/21040KT
     FM260000 23005KT 4SM BR OVC007
     FM260900 24005KT 5SM BR OVC020
     FM261400 14005KT 5SM -RA BR OVC015=



000
FTUS41 KCTP 251739
TAFJST
TAF
KJST 251739Z 2518/2618 17010G20KT P6SM VCSH BKN010 OVC030
      WS020/22040KT
     FM251800 20010G15KT 5SM -RA OVC015 WS020/22035KT
     FM260000 21005KT 4SM BR OVC007
     FM260300 23008KT 4SM BR OVC015
     FM261200 17008KT 3SM BR VCSH OVC008=



000
FTUS41 KCTP 251739
TAFAOO
TAF
KAOO 251739Z 2518/2618 17010G20KT P6SM VCSH OVC020
     FM260000 22004KT 5SM BR OVC015
     FM260600 20005KT 4SM BR OVC025
     FM261500 20009KT P6SM VCSH OVC015=



000
FTUS41 KCTP 251739
TAFAOO
TAF
KAOO 251739Z 2518/2618 17010G20KT P6SM VCSH OVC020
     FM260000 22004KT 5SM BR OVC015
     FM260600 20005KT 4SM BR OVC025
     FM261500 20009KT P6SM VCSH OVC015=



000
FTUS41 KCTP 251739
TAFUNV
TAF
KUNV 251739Z 2518/2618 16005KT P6SM VCSH OVC030
     FM252100 20005KT P6SM OVC020
     FM260200 23004KT 5SM -DZ BR OVC050
     FM260600 24005KT P6SM OVC030
     FM261500 22005KT P6SM VCSH OVC015=



000
FTUS41 KCTP 251739
TAFBFD
TAF
KBFD 251739Z 2518/2618 17010G20KT 5SM BR VCSH OVC010 WS020/21045KT
     FM252100 19010G15KT P6SM OVC010 WS020/22035KT
     FM260000 23005KT 4SM BR OVC007
     FM260900 24005KT 5SM BR OVC020
     FM261400 14005KT 5SM -RA BR OVC015=



000
FTUS41 KCTP 251739
TAFIPT
TAF
KIPT 251739Z 2518/2618 12010G20KT P6SM VCSH OVC030
     FM252100 12008KT 6SM -RA OVC030
     FM260000 10005KT 5SM BR OVC020
     FM261200 VRB03KT 4SM BR OVC015
     FM261500 VRB03KT P6SM VCSH OVC010=



000
FTUS41 KCTP 251739
TAFMDT
TAF
KMDT 251739Z 2518/2618 15005KT P6SM VCSH OVC040
     FM252200 15004KT P6SM OVC030
     FM260300 12003KT 3SM -DZ BR OVC010
     FM260600 VRB03KT 1SM BR OVC009
     FM261200 VRB03KT 3SM BR OVC010
     FM261500 17005KT 5SM BR OVC015=



000
FTUS41 KCTP 251739
TAFIPT
TAF
KIPT 251739Z 2518/2618 12010G20KT P6SM VCSH OVC030
     FM252100 12008KT 6SM -RA OVC030
     FM260000 10005KT 5SM BR OVC020
     FM261200 VRB03KT 4SM BR OVC015
     FM261500 VRB03KT P6SM VCSH OVC010=



000
FTUS41 KCTP 251739
TAFMDT
TAF
KMDT 251739Z 2518/2618 15005KT P6SM VCSH OVC040
     FM252200 15004KT P6SM OVC030
     FM260300 12003KT 3SM -DZ BR OVC010
     FM260600 VRB03KT 1SM BR OVC009
     FM261200 VRB03KT 3SM BR OVC010
     FM261500 17005KT 5SM BR OVC015=



000
FTUS41 KCTP 251739
TAFIPT
TAF
KIPT 251739Z 2518/2618 12010G20KT P6SM VCSH OVC030
     FM252100 12008KT 6SM -RA OVC030
     FM260000 10005KT 5SM BR OVC020
     FM261200 VRB03KT 4SM BR OVC015
     FM261500 VRB03KT P6SM VCSH OVC010=



000
FTUS41 KCTP 251739
TAFBFD
TAF
KBFD 251739Z 2518/2618 17010G20KT 5SM BR VCSH OVC010 WS020/21045KT
     FM252100 19010G15KT P6SM OVC010 WS020/22035KT
     FM260000 23005KT 4SM BR OVC007
     FM260900 24005KT 5SM BR OVC020
     FM261400 14005KT 5SM -RA BR OVC015=



000
FTUS41 KCTP 251739
TAFAOO
TAF
KAOO 251739Z 2518/2618 17010G20KT P6SM VCSH OVC020
     FM260000 22004KT 5SM BR OVC015
     FM260600 20005KT 4SM BR OVC025
     FM261500 20009KT P6SM VCSH OVC015=



000
FTUS41 KCTP 251739
TAFUNV
TAF
KUNV 251739Z 2518/2618 16005KT P6SM VCSH OVC030
     FM252100 20005KT P6SM OVC020
     FM260200 23004KT 5SM -DZ BR OVC050
     FM260600 24005KT P6SM OVC030
     FM261500 22005KT P6SM VCSH OVC015=



000
FTUS41 KCTP 251739
TAFAOO
TAF
KAOO 251739Z 2518/2618 17010G20KT P6SM VCSH OVC020
     FM260000 22004KT 5SM BR OVC015
     FM260600 20005KT 4SM BR OVC025
     FM261500 20009KT P6SM VCSH OVC015=



000
FTUS41 KCTP 251739
TAFUNV
TAF
KUNV 251739Z 2518/2618 16005KT P6SM VCSH OVC030
     FM252100 20005KT P6SM OVC020
     FM260200 23004KT 5SM -DZ BR OVC050
     FM260600 24005KT P6SM OVC030
     FM261500 22005KT P6SM VCSH OVC015=



000
FTUS41 KCTP 251739
TAFMDT
TAF
KMDT 251739Z 2518/2618 15005KT P6SM VCSH OVC040
     FM252200 15004KT P6SM OVC030
     FM260300 12003KT 3SM -DZ BR OVC010
     FM260600 VRB03KT 1SM BR OVC009
     FM261200 VRB03KT 3SM BR OVC010
     FM261500 17005KT 5SM BR OVC015=



000
FTUS41 KCTP 251739
TAFBFD
TAF
KBFD 251739Z 2518/2618 17010G20KT 5SM BR VCSH OVC010 WS020/21045KT
     FM252100 19010G15KT P6SM OVC010 WS020/22035KT
     FM260000 23005KT 4SM BR OVC007
     FM260900 24005KT 5SM BR OVC020
     FM261400 14005KT 5SM -RA BR OVC015=



000
FTUS41 KCTP 251739
TAFUNV
TAF
KUNV 251739Z 2518/2618 16005KT P6SM VCSH OVC030
     FM252100 20005KT P6SM OVC020
     FM260200 23004KT 5SM -DZ BR OVC050
     FM260600 24005KT P6SM OVC030
     FM261500 22005KT P6SM VCSH OVC015=



000
FTUS41 KCTP 251739
TAFJST
TAF
KJST 251739Z 2518/2618 17010G20KT P6SM VCSH BKN010 OVC030
      WS020/22040KT
     FM251800 20010G15KT 5SM -RA OVC015 WS020/22035KT
     FM260000 21005KT 4SM BR OVC007
     FM260300 23008KT 4SM BR OVC015
     FM261200 17008KT 3SM BR VCSH OVC008=



000
FTUS41 KCTP 251739
TAFBFD
TAF
KBFD 251739Z 2518/2618 17010G20KT 5SM BR VCSH OVC010 WS020/21045KT
     FM252100 19010G15KT P6SM OVC010 WS020/22035KT
     FM260000 23005KT 4SM BR OVC007
     FM260900 24005KT 5SM BR OVC020
     FM261400 14005KT 5SM -RA BR OVC015=



000
FTUS41 KCTP 251739
TAFJST
TAF
KJST 251739Z 2518/2618 17010G20KT P6SM VCSH BKN010 OVC030
      WS020/22040KT
     FM251800 20010G15KT 5SM -RA OVC015 WS020/22035KT
     FM260000 21005KT 4SM BR OVC007
     FM260300 23008KT 4SM BR OVC015
     FM261200 17008KT 3SM BR VCSH OVC008=



000
FTUS41 KCTP 251739
TAFIPT
TAF
KIPT 251739Z 2518/2618 12010G20KT P6SM VCSH OVC030
     FM252100 12008KT 6SM -RA OVC030
     FM260000 10005KT 5SM BR OVC020
     FM261200 VRB03KT 4SM BR OVC015
     FM261500 VRB03KT P6SM VCSH OVC010=



000
FTUS41 KCTP 251739
TAFMDT
TAF
KMDT 251739Z 2518/2618 15005KT P6SM VCSH OVC040
     FM252200 15004KT P6SM OVC030
     FM260300 12003KT 3SM -DZ BR OVC010
     FM260600 VRB03KT 1SM BR OVC009
     FM261200 VRB03KT 3SM BR OVC010
     FM261500 17005KT 5SM BR OVC015=



000
FTUS41 KCTP 251542 AAB
TAFMDT
TAF AMD
KMDT 251542Z 2516/2612 15005KT P6SM -RA OVC050
     FM252200 15004KT 6SM -RA OVC030
     FM260300 12003KT 3SM -DZ BR OVC010=



000
FTUS41 KCTP 251542 AAB
TAFMDT
TAF AMD
KMDT 251542Z 2516/2612 15005KT P6SM -RA OVC050
     FM252200 15004KT 6SM -RA OVC030
     FM260300 12003KT 3SM -DZ BR OVC010=



000
FTUS41 KCTP 251542 AAB
TAFMDT
TAF AMD
KMDT 251542Z 2516/2612 15005KT P6SM -RA OVC050
     FM252200 15004KT 6SM -RA OVC030
     FM260300 12003KT 3SM -DZ BR OVC010=



000
FTUS41 KCTP 251542 AAB
TAFMDT
TAF AMD
KMDT 251542Z 2516/2612 15005KT P6SM -RA OVC050
     FM252200 15004KT 6SM -RA OVC030
     FM260300 12003KT 3SM -DZ BR OVC010=



000
FTUS41 KCTP 251530 AAA
TAFIPT
TAF AMD
KIPT 251530Z 2516/2612 10005KT P6SM -RA OVC050
     FM252100 12008KT 6SM -RA OVC030
     FM260000 10005KT 5SM -DZ BR OVC015=



000
FTUS41 KCTP 251530 AAA
TAFIPT
TAF AMD
KIPT 251530Z 2516/2612 10005KT P6SM -RA OVC050
     FM252100 12008KT 6SM -RA OVC030
     FM260000 10005KT 5SM -DZ BR OVC015=



000
FTUS41 KCTP 251530 AAA
TAFIPT
TAF AMD
KIPT 251530Z 2516/2612 10005KT P6SM -RA OVC050
     FM252100 12008KT 6SM -RA OVC030
     FM260000 10005KT 5SM -DZ BR OVC015=



000
FTUS41 KCTP 251529 AAA
TAFUNV
TAF AMD
KUNV 251529Z 2515/2612 16005KT P6SM -RA OVC030
     FM252000 20005KT 6SM -RA OVC030
     FM260000 23004KT 5SM -DZ BR OVC015=



000
FTUS41 KCTP 251529 AAA
TAFUNV
TAF AMD
KUNV 251529Z 2515/2612 16005KT P6SM -RA OVC030
     FM252000 20005KT 6SM -RA OVC030
     FM260000 23004KT 5SM -DZ BR OVC015=



000
FTUS41 KCTP 251529 AAA
TAFUNV
TAF AMD
KUNV 251529Z 2515/2612 16005KT P6SM -RA OVC030
     FM252000 20005KT 6SM -RA OVC030
     FM260000 23004KT 5SM -DZ BR OVC015=



000
FTUS41 KCTP 251529 AAA
TAFUNV
TAF AMD
KUNV 251529Z 2515/2612 16005KT P6SM -RA OVC030
     FM252000 20005KT 6SM -RA OVC030
     FM260000 23004KT 5SM -DZ BR OVC015=



000
FTUS41 KCTP 251525 AAA
TAFAOO
TAF AMD
KAOO 251525Z 2515/2612 17010G20KT P6SM -RA OVC030
     FM251800 20007KT 6SM -RA OVC030
     FM260000 22004KT 5SM BR OVC015=



000
FTUS41 KCTP 251525 AAA
TAFAOO
TAF AMD
KAOO 251525Z 2515/2612 17010G20KT P6SM -RA OVC030
     FM251800 20007KT 6SM -RA OVC030
     FM260000 22004KT 5SM BR OVC015=



000
FTUS41 KCTP 251524 AAA
TAFJST
TAF AMD
KJST 251524Z 2515/2612 17010G20KT 6SM -RA OVC050 WS020/22040KT
     FM251800 20010G15KT 5SM -RA OVC015 WS020/22035KT
     FM260000 21005KT 4SM BR OVC007=



000
FTUS41 KCTP 251524 AAA
TAFJST
TAF AMD
KJST 251524Z 2515/2612 17010G20KT 6SM -RA OVC050 WS020/22040KT
     FM251800 20010G15KT 5SM -RA OVC015 WS020/22035KT
     FM260000 21005KT 4SM BR OVC007=



000
FTUS41 KCTP 251524 AAA
TAFJST
TAF AMD
KJST 251524Z 2515/2612 17010G20KT 6SM -RA OVC050 WS020/22040KT
     FM251800 20010G15KT 5SM -RA OVC015 WS020/22035KT
     FM260000 21005KT 4SM BR OVC007=



000
FTUS41 KCTP 251523 AAA
TAFBFD
TAF AMD
KBFD 251523Z 2515/2612 16010KT P6SM -RA BKN015 OVC020
     FM251800 17010G20KT 6SM -RA OVC025 WS020/21045KT
     FM252100 19010G15KT 5SM -RA OVC010 WS020/22035KT
     FM260000 23005KT 4SM BR OVC007=



000
FTUS41 KCTP 251145 AAA
TAFMDT
TAF AMD
KMDT 251145Z 2512/2612 08003KT P6SM OVC250
     FM251300 12005KT P6SM -FZRA OVC050
     FM251400 15005KT P6SM -RA OVC050
     FM252200 15004KT 6SM -RA OVC030
     FM260300 12003KT 3SM -DZ BR OVC010=



000
FTUS41 KCTP 251145 AAA
TAFMDT
TAF AMD
KMDT 251145Z 2512/2612 08003KT P6SM OVC250
     FM251300 12005KT P6SM -FZRA OVC050
     FM251400 15005KT P6SM -RA OVC050
     FM252200 15004KT 6SM -RA OVC030
     FM260300 12003KT 3SM -DZ BR OVC010=



000
FTUS41 KCTP 251145 AAA
TAFMDT
TAF AMD
KMDT 251145Z 2512/2612 08003KT P6SM OVC250
     FM251300 12005KT P6SM -FZRA OVC050
     FM251400 15005KT P6SM -RA OVC050
     FM252200 15004KT 6SM -RA OVC030
     FM260300 12003KT 3SM -DZ BR OVC010=



000
FTUS41 KCTP 251127
TAFIPT
TAF
KIPT 251127Z 2512/2612 VRB02KT P6SM OVC250
     FM251400 10005KT P6SM -RA OVC050
     FM252100 12008KT 6SM -RA OVC030
     FM260000 10005KT 5SM -DZ BR OVC015=



000
FTUS41 KCTP 251127
TAFBFD
TAF
KBFD 251127Z 2512/2612 15008KT P6SM OVC200
     FM251500 16010KT P6SM -RA OVC050
     FM251800 17010G20KT 6SM -RA OVC025 WS020/21045KT
     FM252100 19010G15KT 5SM -RA OVC010 WS020/22035KT
     FM260000 23005KT 4SM BR OVC007=



000
FTUS41 KCTP 251127
TAFMDT
TAF
KMDT 251127Z 2512/2612 08003KT P6SM OVC250
     FM251400 15005KT P6SM -RA OVC050
     FM252200 15004KT 6SM -RA OVC030
     FM260300 12003KT 3SM -DZ BR OVC010=



000
FTUS41 KCTP 251127
TAFAOO
TAF
KAOO 251127Z 2512/2612 16005KT P6SM -FZRA OVC050
     FM251400 17010KT P6SM -RA OVC050
     FM251800 20007KT 6SM -RA OVC030
     FM260000 22004KT 5SM BR OVC015=



000
FTUS41 KCTP 251127
TAFJST
TAF
KJST 251127Z 2512/2612 16008KT P6SM -FZRA OVC050
     FM251400 17010G20KT 6SM -RA OVC025 WS020/22040KT
     FM251800 20010G15KT 5SM -RA OVC015 WS020/22035KT
     FM260000 21005KT 4SM BR OVC007=



000
FTUS41 KCTP 251127
TAFUNV
TAF
KUNV 251127Z 2512/2612 VRB03KT P6SM OVC100
     FM251300 16005KT P6SM -RA OVC050
     FM252000 20005KT 6SM -RA OVC030
     FM260000 23004KT 5SM -DZ BR OVC015=



000
FTUS41 KCTP 251127
TAFAOO
TAF
KAOO 251127Z 2512/2612 16005KT P6SM -FZRA OVC050
     FM251400 17010KT P6SM -RA OVC050
     FM251800 20007KT 6SM -RA OVC030
     FM260000 22004KT 5SM BR OVC015=



000
FTUS41 KCTP 251127
TAFUNV
TAF
KUNV 251127Z 2512/2612 VRB03KT P6SM OVC100
     FM251300 16005KT P6SM -RA OVC050
     FM252000 20005KT 6SM -RA OVC030
     FM260000 23004KT 5SM -DZ BR OVC015=



000
FTUS41 KCTP 251127
TAFMDT
TAF
KMDT 251127Z 2512/2612 08003KT P6SM OVC250
     FM251400 15005KT P6SM -RA OVC050
     FM252200 15004KT 6SM -RA OVC030
     FM260300 12003KT 3SM -DZ BR OVC010=



000
FTUS41 KCTP 251127
TAFIPT
TAF
KIPT 251127Z 2512/2612 VRB02KT P6SM OVC250
     FM251400 10005KT P6SM -RA OVC050
     FM252100 12008KT 6SM -RA OVC030
     FM260000 10005KT 5SM -DZ BR OVC015=



000
FTUS41 KCTP 251127
TAFBFD
TAF
KBFD 251127Z 2512/2612 15008KT P6SM OVC200
     FM251500 16010KT P6SM -RA OVC050
     FM251800 17010G20KT 6SM -RA OVC025 WS020/21045KT
     FM252100 19010G15KT 5SM -RA OVC010 WS020/22035KT
     FM260000 23005KT 4SM BR OVC007=



000
FTUS41 KCTP 251127
TAFJST
TAF
KJST 251127Z 2512/2612 16008KT P6SM -FZRA OVC050
     FM251400 17010G20KT 6SM -RA OVC025 WS020/22040KT
     FM251800 20010G15KT 5SM -RA OVC015 WS020/22035KT
     FM260000 21005KT 4SM BR OVC007=



000
FTUS41 KCTP 250917 AAB
TAFAOO
TAF AMD
KAOO 250917Z 2509/2606 19005KT P6SM OVC250
     FM251200 16005KT P6SM OVC050
     FM251400 17010KT P6SM -RA OVC040
     FM251800 20008KT 6SM -RA OVC030
     FM260000 21004KT 5SM BR OVC015=



000
FTUS41 KCTP 250917 AAB
TAFAOO
TAF AMD
KAOO 250917Z 2509/2606 19005KT P6SM OVC250
     FM251200 16005KT P6SM OVC050
     FM251400 17010KT P6SM -RA OVC040
     FM251800 20008KT 6SM -RA OVC030
     FM260000 21004KT 5SM BR OVC015=



000
FTUS41 KCTP 250917 AAB
TAFIPT
TAF AMD
KIPT 250917Z 2509/2606 VRB02KT P6SM OVC250
     FM251400 10005KT P6SM OVC050
     FM251700 11005KT P6SM -RA OVC040
     FM252100 12008KT 6SM -RA OVC030
     FM260000 10005KT 5SM -DZ BR OVC015=



000
FTUS41 KCTP 250917 AAB
TAFIPT
TAF AMD
KIPT 250917Z 2509/2606 VRB02KT P6SM OVC250
     FM251400 10005KT P6SM OVC050
     FM251700 11005KT P6SM -RA OVC040
     FM252100 12008KT 6SM -RA OVC030
     FM260000 10005KT 5SM -DZ BR OVC015=



000
FTUS41 KCTP 250917 AAB
TAFAOO
TAF AMD
KAOO 250917Z 2509/2606 19005KT P6SM OVC250
     FM251200 16005KT P6SM OVC050
     FM251400 17010KT P6SM -RA OVC040
     FM251800 20008KT 6SM -RA OVC030
     FM260000 21004KT 5SM BR OVC015=



000
FTUS41 KCTP 250917 AAB
TAFJST
TAF AMD
KJST 250917Z 2509/2606 15008KT P6SM OVC200
     FM251100 16008KT P6SM OVC050
     FM251200 18010G20KT 6SM -RA OVC025 WS020/22040KT
      TEMPO 2512/2513 -FZRA
     FM251800 20010G15KT 5SM -RA OVC015 WS020/22035KT
     FM260000 21005KT 4SM BR OVC007=



000
FTUS41 KCTP 250917 AAB
TAFMDT
TAF AMD
KMDT 250917Z 2509/2606 09003KT P6SM OVC250
     FM251500 15005KT P6SM OVC050
     FM251800 16005KT P6SM -RA OVC040
     FM252200 15004KT 6SM -RA OVC030
     FM260300 12003KT 4SM -DZ BR OVC015=



000
FTUS41 KCTP 250917 AAB
TAFMDT
TAF AMD
KMDT 250917Z 2509/2606 09003KT P6SM OVC250
     FM251500 15005KT P6SM OVC050
     FM251800 16005KT P6SM -RA OVC040
     FM252200 15004KT 6SM -RA OVC030
     FM260300 12003KT 4SM -DZ BR OVC015=



000
FTUS41 KCTP 250917 AAB
TAFUNV
TAF AMD
KUNV 250917Z 2509/2606 VRB03KT P6SM OVC250
     FM251200 16005KT P6SM OVC050
     FM251500 20005KT P6SM -RA OVC040
     FM252100 20005KT 6SM -RA OVC030
     FM260000 23004KT 5SM -DZ BR OVC015=



000
FTUS41 KCTP 250917 AAB
TAFUNV
TAF AMD
KUNV 250917Z 2509/2606 VRB03KT P6SM OVC250
     FM251200 16005KT P6SM OVC050
     FM251500 20005KT P6SM -RA OVC040
     FM252100 20005KT 6SM -RA OVC030
     FM260000 23004KT 5SM -DZ BR OVC015=



000
FTUS41 KCTP 250917 AAB
TAFBFD
TAF AMD
KBFD 250917Z 2509/2606 14008KT P6SM OVC200
     FM251200 15010KT P6SM OVC050
     FM251500 15010G20KT 6SM -RA OVC025 WS020/21045KT
     FM252100 18010G15KT 5SM -RA OVC010 WS020/22035KT
     FM260000 19005KT 4SM BR OVC007=



000
FTUS41 KCTP 250917 AAB
TAFBFD
TAF AMD
KBFD 250917Z 2509/2606 14008KT P6SM OVC200
     FM251200 15010KT P6SM OVC050
     FM251500 15010G20KT 6SM -RA OVC025 WS020/21045KT
     FM252100 18010G15KT 5SM -RA OVC010 WS020/22035KT
     FM260000 19005KT 4SM BR OVC007=



000
FTUS41 KCTP 250917 AAB
TAFJST
TAF AMD
KJST 250917Z 2509/2606 15008KT P6SM OVC200
     FM251100 16008KT P6SM OVC050
     FM251200 18010G20KT 6SM -RA OVC025 WS020/22040KT
      TEMPO 2512/2513 -FZRA
     FM251800 20010G15KT 5SM -RA OVC015 WS020/22035KT
     FM260000 21005KT 4SM BR OVC007=



000
FTUS41 KCTP 250600 RRA
TAFIPT
TAF
KIPT 250600Z 2506/2606 VRB02KT P6SM BKN250
     FM251400 10005KT P6SM OVC050
     FM251700 11005KT P6SM -RA OVC040
     FM252100 12008KT 6SM -RA OVC030
     FM260000 10005KT 5SM -DZ BR OVC015=



000
FTUS41 KCTP 250600 RRA
TAFBFD
TAF
KBFD 250600Z 2506/2606 12005KT P6SM BKN200
     FM251200 15010KT P6SM OVC050
     FM251500 15010G20KT 6SM -RA OVC025 WS020/21045KT
     FM252100 18010G15KT 5SM -RA OVC010 WS020/22035KT
     FM260000 19005KT 4SM BR OVC007=



000
FTUS41 KCTP 250600 RRA
TAFMDT
TAF
KMDT 250600Z 2506/2606 VRB02KT P6SM BKN250
     FM251500 15005KT P6SM OVC050
     FM251800 16005KT P6SM -RA OVC040
     FM252200 15004KT 6SM -RA OVC030
     FM260300 12003KT 4SM -DZ BR OVC015=



000
FTUS41 KCTP 250600 RRA
TAFAOO
TAF
KAOO 250600Z 2506/2606 15005KT P6SM BKN250
     FM251100 16005KT P6SM OVC050
     FM251400 17010KT P6SM -RA OVC040
     FM251800 20008KT 6SM -RA OVC030
     FM260000 21004KT 5SM BR OVC015=



000
FTUS41 KCTP 250600 RRA
TAFBFD
TAF
KBFD 250600Z 2506/2606 12005KT P6SM BKN200
     FM251200 15010KT P6SM OVC050
     FM251500 15010G20KT 6SM -RA OVC025 WS020/21045KT
     FM252100 18010G15KT 5SM -RA OVC010 WS020/22035KT
     FM260000 19005KT 4SM BR OVC007=



000
FTUS41 KCTP 250600 RRA
TAFIPT
TAF
KIPT 250600Z 2506/2606 VRB02KT P6SM BKN250
     FM251400 10005KT P6SM OVC050
     FM251700 11005KT P6SM -RA OVC040
     FM252100 12008KT 6SM -RA OVC030
     FM260000 10005KT 5SM -DZ BR OVC015=



000
FTUS41 KCTP 250600 RRA
TAFJST
TAF
KJST 250600Z 2506/2606 14008KT P6SM BKN200
     FM251000 16008KT P6SM OVC050
     FM251300 18010G20KT 6SM -RA OVC025 WS020/22040KT
     FM251800 20010G15KT 5SM -RA OVC015 WS020/22035KT
     FM260000 21005KT 4SM BR OVC007=



000
FTUS41 KCTP 250600 RRA
TAFMDT
TAF
KMDT 250600Z 2506/2606 VRB02KT P6SM BKN250
     FM251500 15005KT P6SM OVC050
     FM251800 16005KT P6SM -RA OVC040
     FM252200 15004KT 6SM -RA OVC030
     FM260300 12003KT 4SM -DZ BR OVC015=



000
FTUS41 KCTP 250600 RRA
TAFUNV
TAF
KUNV 250600Z 2506/2606 VRB03KT P6SM BKN250
     FM251200 16005KT P6SM OVC050
     FM251500 20005KT P6SM -RA OVC040
     FM252100 20005KT 6SM -RA OVC030
     FM260000 23004KT 5SM -DZ BR OVC015=



000
FTUS41 KCTP 250600 RRA
TAFUNV
TAF
KUNV 250600Z 2506/2606 VRB03KT P6SM BKN250
     FM251200 16005KT P6SM OVC050
     FM251500 20005KT P6SM -RA OVC040
     FM252100 20005KT 6SM -RA OVC030
     FM260000 23004KT 5SM -DZ BR OVC015=



000
FTUS41 KCTP 250600 RRA
TAFJST
TAF
KJST 250600Z 2506/2606 14008KT P6SM BKN200
     FM251000 16008KT P6SM OVC050
     FM251300 18010G20KT 6SM -RA OVC025 WS020/22040KT
     FM251800 20010G15KT 5SM -RA OVC015 WS020/22035KT
     FM260000 21005KT 4SM BR OVC007=



000
FTUS41 KCTP 250600 RRA
TAFAOO
TAF
KAOO 250600Z 2506/2606 15005KT P6SM BKN250
     FM251100 16005KT P6SM OVC050
     FM251400 17010KT P6SM -RA OVC040
     FM251800 20008KT 6SM -RA OVC030
     FM260000 21004KT 5SM BR OVC015=



000
FTUS41 KCTP 250600 RRA
TAFMDT
TAF
KMDT 250600Z 2506/2606 VRB02KT P6SM BKN250
     FM251500 15005KT P6SM OVC050
     FM251800 16005KT P6SM -RA OVC040
     FM252200 15004KT 6SM -RA OVC030
     FM260300 12003KT 4SM -DZ BR OVC015=



000
FTUS41 KCTP 250600 RRA
TAFJST
TAF
KJST 250600Z 2506/2606 14008KT P6SM BKN200
     FM251000 16008KT P6SM OVC050
     FM251300 18010G20KT 6SM -RA OVC025 WS020/22040KT
     FM251800 20010G15KT 5SM -RA OVC015 WS020/22035KT
     FM260000 21005KT 4SM BR OVC007=



000
FTUS41 KCTP 250600 RRA
TAFIPT
TAF
KIPT 250600Z 2506/2606 VRB02KT P6SM BKN250
     FM251400 10005KT P6SM OVC050
     FM251700 11005KT P6SM -RA OVC040
     FM252100 12008KT 6SM -RA OVC030
     FM260000 10005KT 5SM -DZ BR OVC015=



000
FTUS41 KCTP 250600 RRA
TAFBFD
TAF
KBFD 250600Z 2506/2606 12005KT P6SM BKN200
     FM251200 15010KT P6SM OVC050
     FM251500 15010G20KT 6SM -RA OVC025 WS020/21045KT
     FM252100 18010G15KT 5SM -RA OVC010 WS020/22035KT
     FM260000 19005KT 4SM BR OVC007=



000
FTUS41 KCTP 250600 RRA
TAFBFD
TAF
KBFD 250600Z 2506/2606 12005KT P6SM BKN200
     FM251200 15010KT P6SM OVC050
     FM251500 15010G20KT 6SM -RA OVC025 WS020/21045KT
     FM252100 18010G15KT 5SM -RA OVC010 WS020/22035KT
     FM260000 19005KT 4SM BR OVC007=



000
FTUS41 KCTP 250600 RRA
TAFIPT
TAF
KIPT 250600Z 2506/2606 VRB02KT P6SM BKN250
     FM251400 10005KT P6SM OVC050
     FM251700 11005KT P6SM -RA OVC040
     FM252100 12008KT 6SM -RA OVC030
     FM260000 10005KT 5SM -DZ BR OVC015=



000
FTUS41 KCTP 250600 RRA
TAFMDT
TAF
KMDT 250600Z 2506/2606 VRB02KT P6SM BKN250
     FM251500 15005KT P6SM OVC050
     FM251800 16005KT P6SM -RA OVC040
     FM252200 15004KT 6SM -RA OVC030
     FM260300 12003KT 4SM -DZ BR OVC015=



000
FTUS41 KCTP 250600 RRA
TAFUNV
TAF
KUNV 250600Z 2506/2606 VRB03KT P6SM BKN250
     FM251200 16005KT P6SM OVC050
     FM251500 20005KT P6SM -RA OVC040
     FM252100 20005KT 6SM -RA OVC030
     FM260000 23004KT 5SM -DZ BR OVC015=



000
FTUS41 KCTP 250600 RRA
TAFAOO
TAF
KAOO 250600Z 2506/2606 15005KT P6SM BKN250
     FM251100 16005KT P6SM OVC050
     FM251400 17010KT P6SM -RA OVC040
     FM251800 20008KT 6SM -RA OVC030
     FM260000 21004KT 5SM BR OVC015=



000
FTUS41 KCTP 250600 RRA
TAFAOO
TAF
KAOO 250600Z 2506/2606 15005KT P6SM BKN250
     FM251100 16005KT P6SM OVC050
     FM251400 17010KT P6SM -RA OVC040
     FM251800 20008KT 6SM -RA OVC030
     FM260000 21004KT 5SM BR OVC015=



000
FTUS41 KCTP 250600 RRA
TAFJST
TAF
KJST 250600Z 2506/2606 14008KT P6SM BKN200
     FM251000 16008KT P6SM OVC050
     FM251300 18010G20KT 6SM -RA OVC025 WS020/22040KT
     FM251800 20010G15KT 5SM -RA OVC015 WS020/22035KT
     FM260000 21005KT 4SM BR OVC007=



000
FTUS41 KCTP 250600 RRA
TAFUNV
TAF
KUNV 250600Z 2506/2606 VRB03KT P6SM BKN250
     FM251200 16005KT P6SM OVC050
     FM251500 20005KT P6SM -RA OVC040
     FM252100 20005KT 6SM -RA OVC030
     FM260000 23004KT 5SM -DZ BR OVC015=



000
FTUS41 KCTP 250333 AAA
TAFBFD
TAF AMD
KBFD 250333Z 2504/2524 12003KT P6SM SKC
     FM251000 15010KT P6SM BKN040 BKN250
     FM251500 15012G19KT 4SM -RA OVC015
     FM252100 20012G19KT 4SM -SHRA OVC007=



000
FTUS41 KCTP 250333 AAA
TAFUNV
TAF AMD
KUNV 250333Z 2504/2524 VRB03KT P6SM SKC
     FM251100 14004KT P6SM BKN040 BKN250
     FM251400 16007KT P6SM -SHRA OVC035
     FM251700 18011G18KT 4SM -SHRA OVC030
     FM252200 20009KT 4SM -SHRA OVC018=



000
FTUS41 KCTP 250333 AAA
TAFIPT
TAF AMD
KIPT 250333Z 2504/2524 VRB03KT P6SM SKC
     FM251300 10004KT P6SM BKN040 BKN250
     FM251430 10007KT P6SM -SHRA OVC035
     FM251700 10011G18KT 4SM -SHRA OVC030
     FM252300 11009KT 4SM -SHRA OVC018=



000
FTUS41 KCTP 250333 AAA
TAFMDT
TAF AMD
KMDT 250333Z 2504/2524 VRB03KT P6SM SKC
     FM251300 12004KT P6SM BKN040 BKN250
     FM251500 14008KT P6SM -SHRA OVC040=



000
FTUS41 KCTP 250333 AAA
TAFJST
TAF AMD
KJST 250333Z 2504/2524 14005KT P6SM SKC
     FM250900 15009KT P6SM OVC040
     FM251200 16011G18KT P6SM -FZRA OVC030
     FM251500 18013G21KT 4SM -RA OVC020
     FM252100 20012G19KT 4SM -SHRA OVC012=



000
FTUS41 KCTP 250333 AAA
TAFAOO
TAF AMD
KAOO 250333Z 2504/2524 VRB03KT P6SM SKC
     FM250900 14004KT P6SM BKN040 BKN250
     FM251200 16007KT P6SM -SHRA OVC035
     FM251500 18011G18KT 4SM -SHRA OVC030
     FM252200 20009G15KT 4SM -SHRA OVC018=



000
FTUS41 KCTP 250333 AAA
TAFAOO
TAF AMD
KAOO 250333Z 2504/2524 VRB03KT P6SM SKC
     FM250900 14004KT P6SM BKN040 BKN250
     FM251200 16007KT P6SM -SHRA OVC035
     FM251500 18011G18KT 4SM -SHRA OVC030
     FM252200 20009G15KT 4SM -SHRA OVC018=



000
FTUS41 KCTP 250333 AAA
TAFUNV
TAF AMD
KUNV 250333Z 2504/2524 VRB03KT P6SM SKC
     FM251100 14004KT P6SM BKN040 BKN250
     FM251400 16007KT P6SM -SHRA OVC035
     FM251700 18011G18KT 4SM -SHRA OVC030
     FM252200 20009KT 4SM -SHRA OVC018=



000
FTUS41 KCTP 250333 AAA
TAFMDT
TAF AMD
KMDT 250333Z 2504/2524 VRB03KT P6SM SKC
     FM251300 12004KT P6SM BKN040 BKN250
     FM251500 14008KT P6SM -SHRA OVC040=



000
FTUS41 KCTP 250333 AAA
TAFIPT
TAF AMD
KIPT 250333Z 2504/2524 VRB03KT P6SM SKC
     FM251300 10004KT P6SM BKN040 BKN250
     FM251430 10007KT P6SM -SHRA OVC035
     FM251700 10011G18KT 4SM -SHRA OVC030
     FM252300 11009KT 4SM -SHRA OVC018=



000
FTUS41 KCTP 242330
TAFJST
TAF
KJST 242330Z 2500/2524 14005KT P6SM SKC
     FM250900 15009KT P6SM OVC040
     FM251200 16011G18KT P6SM -FZRA OVC030
     FM251500 18013G21KT 4SM -RA OVC020
     FM252100 20012G19KT 4SM -SHRA OVC012=



000
FTUS41 KCTP 242330
TAFIPT
TAF
KIPT 242330Z 2500/2524 VRB03KT P6SM SKC
     FM251300 10004KT P6SM BKN040 BKN250
     FM251430 10007KT P6SM -SHRA OVC035
     FM251700 10011G18KT 4SM -SHRA OVC030
     FM252300 11009KT 4SM -SHRA OVC018=



000
FTUS41 KCTP 242330
TAFIPT
TAF
KIPT 242330Z 2500/2524 VRB03KT P6SM SKC
     FM251300 10004KT P6SM BKN040 BKN250
     FM251430 10007KT P6SM -SHRA OVC035
     FM251700 10011G18KT 4SM -SHRA OVC030
     FM252300 11009KT 4SM -SHRA OVC018=



000
FTUS41 KCTP 242330
TAFBFD
TAF
KBFD 242330Z 2500/2524 12003KT P6SM SKC
     FM251000 15010KT P6SM BKN040 BKN250
     FM251500 15012G19KT 4SM -RA OVC015
     FM252100 20012G19KT 4SM -SHRA OVC007=



000
FTUS41 KCTP 242330
TAFAOO
TAF
KAOO 242330Z 2500/2524 VRB03KT P6SM SKC
     FM250900 14004KT P6SM BKN040 BKN250
     FM251200 16007KT P6SM -SHRA OVC035
     FM251500 18011G18KT 4SM -SHRA OVC030
     FM252200 20009G15KT 4SM -SHRA OVC018=



000
FTUS41 KCTP 242330
TAFUNV
TAF
KUNV 242330Z 2500/2524 VRB03KT P6SM SKC
     FM251100 14004KT P6SM BKN040 BKN250
     FM251400 16007KT P6SM -SHRA OVC035
     FM251700 18011G18KT 4SM -SHRA OVC030
     FM252200 20009KT 4SM -SHRA OVC018=



000
FTUS41 KCTP 242330
TAFBFD
TAF
KBFD 242330Z 2500/2524 12003KT P6SM SKC
     FM251000 15010KT P6SM BKN040 BKN250
     FM251500 15012G19KT 4SM -RA OVC015
     FM252100 20012G19KT 4SM -SHRA OVC007=



000
FTUS41 KCTP 242330
TAFAOO
TAF
KAOO 242330Z 2500/2524 VRB03KT P6SM SKC
     FM250900 14004KT P6SM BKN040 BKN250
     FM251200 16007KT P6SM -SHRA OVC035
     FM251500 18011G18KT 4SM -SHRA OVC030
     FM252200 20009G15KT 4SM -SHRA OVC018=



000
FTUS41 KCTP 242330
TAFBFD
TAF
KBFD 242330Z 2500/2524 12003KT P6SM SKC
     FM251000 15010KT P6SM BKN040 BKN250
     FM251500 15012G19KT 4SM -RA OVC015
     FM252100 20012G19KT 4SM -SHRA OVC007=



000
FTUS41 KCTP 242330
TAFIPT
TAF
KIPT 242330Z 2500/2524 VRB03KT P6SM SKC
     FM251300 10004KT P6SM BKN040 BKN250
     FM251430 10007KT P6SM -SHRA OVC035
     FM251700 10011G18KT 4SM -SHRA OVC030
     FM252300 11009KT 4SM -SHRA OVC018=



000
FTUS41 KCTP 242330
TAFMDT
TAF
KMDT 242330Z 2500/2524 VRB03KT P6SM SKC
     FM251300 12004KT P6SM BKN040 BKN250
     FM251500 14008KT P6SM -SHRA OVC040=



000
FTUS41 KCTP 242330
TAFUNV
TAF
KUNV 242330Z 2500/2524 VRB03KT P6SM SKC
     FM251100 14004KT P6SM BKN040 BKN250
     FM251400 16007KT P6SM -SHRA OVC035
     FM251700 18011G18KT 4SM -SHRA OVC030
     FM252200 20009KT 4SM -SHRA OVC018=



000
FTUS41 KCTP 242330
TAFJST
TAF
KJST 242330Z 2500/2524 14005KT P6SM SKC
     FM250900 15009KT P6SM OVC040
     FM251200 16011G18KT P6SM -FZRA OVC030
     FM251500 18013G21KT 4SM -RA OVC020
     FM252100 20012G19KT 4SM -SHRA OVC012=



000
FTUS41 KCTP 242330
TAFAOO
TAF
KAOO 242330Z 2500/2524 VRB03KT P6SM SKC
     FM250900 14004KT P6SM BKN040 BKN250
     FM251200 16007KT P6SM -SHRA OVC035
     FM251500 18011G18KT 4SM -SHRA OVC030
     FM252200 20009G15KT 4SM -SHRA OVC018=



000
FTUS41 KCTP 242330
TAFIPT
TAF
KIPT 242330Z 2500/2524 VRB03KT P6SM SKC
     FM251300 10004KT P6SM BKN040 BKN250
     FM251430 10007KT P6SM -SHRA OVC035
     FM251700 10011G18KT 4SM -SHRA OVC030
     FM252300 11009KT 4SM -SHRA OVC018=



000
FTUS41 KCTP 242330
TAFUNV
TAF
KUNV 242330Z 2500/2524 VRB03KT P6SM SKC
     FM251100 14004KT P6SM BKN040 BKN250
     FM251400 16007KT P6SM -SHRA OVC035
     FM251700 18011G18KT 4SM -SHRA OVC030
     FM252200 20009KT 4SM -SHRA OVC018=



000
FTUS41 KCTP 242330
TAFBFD
TAF
KBFD 242330Z 2500/2524 12003KT P6SM SKC
     FM251000 15010KT P6SM BKN040 BKN250
     FM251500 15012G19KT 4SM -RA OVC015
     FM252100 20012G19KT 4SM -SHRA OVC007=



000
FTUS41 KCTP 242330
TAFAOO
TAF
KAOO 242330Z 2500/2524 VRB03KT P6SM SKC
     FM250900 14004KT P6SM BKN040 BKN250
     FM251200 16007KT P6SM -SHRA OVC035
     FM251500 18011G18KT 4SM -SHRA OVC030
     FM252200 20009G15KT 4SM -SHRA OVC018=



000
FTUS41 KCTP 242330
TAFUNV
TAF
KUNV 242330Z 2500/2524 VRB03KT P6SM SKC
     FM251100 14004KT P6SM BKN040 BKN250
     FM251400 16007KT P6SM -SHRA OVC035
     FM251700 18011G18KT 4SM -SHRA OVC030
     FM252200 20009KT 4SM -SHRA OVC018=



000
FTUS41 KCTP 242330
TAFMDT
TAF
KMDT 242330Z 2500/2524 VRB03KT P6SM SKC
     FM251300 12004KT P6SM BKN040 BKN250
     FM251500 14008KT P6SM -SHRA OVC040=



000
FTUS41 KCTP 242330
TAFJST
TAF
KJST 242330Z 2500/2524 14005KT P6SM SKC
     FM250900 15009KT P6SM OVC040
     FM251200 16011G18KT P6SM -FZRA OVC030
     FM251500 18013G21KT 4SM -RA OVC020
     FM252100 20012G19KT 4SM -SHRA OVC012=



000
FTUS41 KCTP 242330
TAFMDT
TAF
KMDT 242330Z 2500/2524 VRB03KT P6SM SKC
     FM251300 12004KT P6SM BKN040 BKN250
     FM251500 14008KT P6SM -SHRA OVC040=



000
FTUS41 KCTP 242330
TAFMDT
TAF
KMDT 242330Z 2500/2524 VRB03KT P6SM SKC
     FM251300 12004KT P6SM BKN040 BKN250
     FM251500 14008KT P6SM -SHRA OVC040=



000
FTUS41 KCTP 242330
TAFJST
TAF
KJST 242330Z 2500/2524 14005KT P6SM SKC
     FM250900 15009KT P6SM OVC040
     FM251200 16011G18KT P6SM -FZRA OVC030
     FM251500 18013G21KT 4SM -RA OVC020
     FM252100 20012G19KT 4SM -SHRA OVC012=



000
FTUS41 KCTP 242051 AAB
TAFBFD
TAF AMD
KBFD 242051Z 2421/2518 VRB03KT P6SM SKC
     FM250600 15010KT P6SM OVC050
     FM251500 15012G19KT 4SM -RA OVC015=



000
FTUS41 KCTP 242051 AAB
TAFUNV
TAF AMD
KUNV 242051Z 2421/2518 VRB03KT P6SM SKC
     FM251500 17008KT 6SM -RA OVC025=



000
FTUS41 KCTP 242051 AAB
TAFAOO
TAF AMD
KAOO 242051Z 2421/2518 VRB03KT P6SM FEW045
     FM250600 17005KT P6SM OVC040
     FM251500 17008KT 5SM -RA OVC025=



000
FTUS41 KCTP 242051 AAB
TAFAOO
TAF AMD
KAOO 242051Z 2421/2518 VRB03KT P6SM FEW045
     FM250600 17005KT P6SM OVC040
     FM251500 17008KT 5SM -RA OVC025=



000
FTUS41 KCTP 242051 AAB
TAFBFD
TAF AMD
KBFD 242051Z 2421/2518 VRB03KT P6SM SKC
     FM250600 15010KT P6SM OVC050
     FM251500 15012G19KT 4SM -RA OVC015=



000
FTUS41 KCTP 242051 AAA
TAFIPT
TAF AMD
KIPT 242051Z 2421/2518 VRB03KT P6SM SKC
     FM251500 11009G16KT P6SM OVC050=



000
FTUS41 KCTP 242051 AAB
TAFUNV
TAF AMD
KUNV 242051Z 2421/2518 VRB03KT P6SM SKC
     FM251500 17008KT 6SM -RA OVC025=



000
FTUS41 KCTP 242051 AAB
TAFJST
TAF AMD
KJST 242051Z 2421/2518 13005KT P6SM FEW035
     FM250600 15010KT P6SM OVC030
     FM251500 17011G18KT 1 1/2SM -RA OVC015=



000
FTUS41 KCTP 242051 AAB
TAFJST
TAF AMD
KJST 242051Z 2421/2518 13005KT P6SM FEW035
     FM250600 15010KT P6SM OVC030
     FM251500 17011G18KT 1 1/2SM -RA OVC015=



000
FTUS41 KCTP 242051 AAB
TAFMDT
TAF AMD
KMDT 242051Z 2421/2518 VRB03KT P6SM SKC
     FM251500 15005KT P6SM OVC050=



000
FTUS41 KCTP 242051 AAB
TAFMDT
TAF AMD
KMDT 242051Z 2421/2518 VRB03KT P6SM SKC
     FM251500 15005KT P6SM OVC050=



000
FTUS41 KCTP 242051 AAA
TAFIPT
TAF AMD
KIPT 242051Z 2421/2518 VRB03KT P6SM SKC
     FM251500 11009G16KT P6SM OVC050=



000
FTUS41 KCTP 242051 AAB
TAFBFD
TAF AMD
KBFD 242051Z 2421/2518 VRB03KT P6SM SKC
     FM250600 15010KT P6SM OVC050
     FM251500 15012G19KT 4SM -RA OVC015=



000
FTUS41 KCTP 242051 AAB
TAFJST
TAF AMD
KJST 242051Z 2421/2518 13005KT P6SM FEW035
     FM250600 15010KT P6SM OVC030
     FM251500 17011G18KT 1 1/2SM -RA OVC015=



000
FTUS41 KCTP 242051 AAB
TAFAOO
TAF AMD
KAOO 242051Z 2421/2518 VRB03KT P6SM FEW045
     FM250600 17005KT P6SM OVC040
     FM251500 17008KT 5SM -RA OVC025=



000
FTUS41 KCTP 241941 AAA
TAFAOO
TAF AMD
KAOO 241941Z 2420/2518 VRB03KT P6SM FEW045
     FM250600 17005KT P6SM OVC040
     FM251500 17008KT 5SM -RA OVC025=



000
FTUS41 KCTP 241941 AAA
TAFAOO
TAF AMD
KAOO 241941Z 2420/2518 VRB03KT P6SM FEW045
     FM250600 17005KT P6SM OVC040
     FM251500 17008KT 5SM -RA OVC025=



000
FTUS41 KCTP 241941 AAA
TAFBFD
TAF AMD
KBFD 241941Z 2420/2518 VRB03KT P6SM SKC
     FM250600 15010KT P6SM OVC050
     FM251500 15012G19KT 4SM -RA OVC015=



000
FTUS41 KCTP 241941 AAA
TAFBFD
TAF AMD
KBFD 241941Z 2420/2518 VRB03KT P6SM SKC
     FM250600 15010KT P6SM OVC050
     FM251500 15012G19KT 4SM -RA OVC015=



000
FTUS41 KCTP 241940 AAA
TAFUNV
TAF AMD
KUNV 241940Z 2420/2518 VRB03KT P6SM SKC
     FM251500 17008KT 6SM -RA OVC025=



000
FTUS41 KCTP 241940 AAA
TAFUNV
TAF AMD
KUNV 241940Z 2420/2518 VRB03KT P6SM SKC
     FM251500 17008KT 6SM -RA OVC025=



000
FTUS41 KCTP 241937 AAA
TAFMDT
TAF AMD
KMDT 241937Z 2420/2518 VRB03KT P6SM OVC050
     FM242030 VRB03KT P6SM SKC
     FM251500 15005KT P6SM OVC050=



000
FTUS41 KCTP 241937 AAA
TAFMDT
TAF AMD
KMDT 241937Z 2420/2518 VRB03KT P6SM OVC050
     FM242030 VRB03KT P6SM SKC
     FM251500 15005KT P6SM OVC050=



000
FTUS41 KCTP 241935 AAA
TAFJST
TAF AMD
KJST 241935Z 2420/2518 11004KT P6SM BKN035
     FM242100 13005KT P6SM FEW035
     FM250600 15010KT P6SM OVC030
     FM251500 17011G18KT 1 1/2SM -RA OVC015=



000
FTUS41 KCTP 241935 AAA
TAFJST
TAF AMD
KJST 241935Z 2420/2518 11004KT P6SM BKN035
     FM242100 13005KT P6SM FEW035
     FM250600 15010KT P6SM OVC030
     FM251500 17011G18KT 1 1/2SM -RA OVC015=



000
FTUS41 KCTP 241720
TAFBFD
TAF
KBFD 241720Z 2418/2518 08005KT P6SM SCT100
     FM250600 15010KT P6SM OVC050=



000
FTUS41 KCTP 241720
TAFAOO
TAF
KAOO 241720Z 2418/2518 05005KT P6SM OVC035
     FM241800 10005KT P6SM BKN040
     FM250600 17005KT P6SM OVC040=



000
FTUS41 KCTP 241720
TAFMDT
TAF
KMDT 241720Z 2418/2518 VRB03KT P6SM OVC050
     FM242200 VRB03KT P6SM SCT050
     FM251500 15005KT P6SM OVC050=



000
FTUS41 KCTP 241720
TAFMDT
TAF
KMDT 241720Z 2418/2518 05003KT P6SM OVC050
     FM242200 14003KT P6SM SCT050
     FM250900 14003KT P6SM OVC050=



000
FTUS41 KCTP 241720
TAFAOO
TAF
KAOO 241720Z 2418/2518 05005KT P6SM OVC035
     FM242000 10005KT P6SM BKN040
     FM250600 17005KT P6SM OVC040
     FM251500 17008KT 5SM -RA OVC025=



000
FTUS41 KCTP 241720
TAFJST
TAF
KJST 241720Z 2418/2518 12005KT P6SM OVC020
     FM242000 15005KT P6SM SCT025 BKN035
     FM250600 15010KT P6SM OVC030
     FM251500 17011G18KT 1 1/2SM -RA OVC015=



000
FTUS41 KCTP 241720
TAFBFD
TAF
KBFD 241720Z 2418/2518 08005KT P6SM SCT100
     FM250600 15010KT P6SM OVC050=



000
FTUS41 KCTP 241720
TAFMDT
TAF
KMDT 241720Z 2418/2518 05003KT P6SM OVC050
     FM242200 14003KT P6SM SCT050
     FM250900 14003KT P6SM OVC050=



000
FTUS41 KCTP 241720
TAFUNV
TAF
KUNV 241720Z 2418/2518 05005KT P6SM OVC035
     FM242100 VRB03KT P6SM SCT050
     FM251500 17008KT 6SM -RA OVC025=



000
FTUS41 KCTP 241720
TAFMDT
TAF
KMDT 241720Z 2418/2518 VRB03KT P6SM OVC050
     FM242200 VRB03KT P6SM SCT050
     FM251500 15005KT P6SM OVC050=



000
FTUS41 KCTP 241720
TAFJST
TAF
KJST 241720Z 2418/2518 12005KT P6SM OVC025
     FM241900 15005KT P6SM BKN035=



000
FTUS41 KCTP 241720
TAFAOO
TAF
KAOO 241720Z 2418/2518 05005KT P6SM OVC035
     FM241800 10005KT P6SM BKN040
     FM250600 17005KT P6SM OVC040=



000
FTUS41 KCTP 241720
TAFJST
TAF
KJST 241720Z 2418/2518 12005KT P6SM OVC020
     FM242000 15005KT P6SM SCT025 BKN035
     FM250600 15010KT P6SM OVC030
     FM251500 17011G18KT 1 1/2SM -RA OVC015=



000
FTUS41 KCTP 241720
TAFUNV
TAF
KUNV 241720Z 2418/2518 03005KT P6SM OVC035
     FM241800 10003KT P6SM BKN040
     FM250800 18005KT P6SM OVC050=



000
FTUS41 KCTP 241720
TAFBFD
TAF
KBFD 241720Z 2418/2518 VRB03KT P6SM SCT100
     FM250600 15010KT P6SM OVC050
     FM251500 15012G19KT 4SM -RA OVC015=



000
FTUS41 KCTP 241720
TAFMDT
TAF
KMDT 241720Z 2418/2518 05003KT P6SM OVC050
     FM242200 14003KT P6SM SCT050
     FM250900 14003KT P6SM OVC050=



000
FTUS41 KCTP 241720
TAFMDT
TAF
KMDT 241720Z 2418/2518 VRB03KT P6SM OVC050
     FM242200 VRB03KT P6SM SCT050
     FM251500 15005KT P6SM OVC050=



000
FTUS41 KCTP 241720
TAFUNV
TAF
KUNV 241720Z 2418/2518 05005KT P6SM OVC035
     FM242100 VRB03KT P6SM SCT050
     FM251500 17008KT 6SM -RA OVC025=



000
FTUS41 KCTP 241720
TAFJST
TAF
KJST 241720Z 2418/2518 12005KT P6SM OVC025
     FM241900 15005KT P6SM BKN035=



000
FTUS41 KCTP 241720
TAFIPT
TAF
KIPT 241720Z 2418/2518 VRB03KT P6SM SKC
     FM251000 09003KT P6SM BKN050=



000
FTUS41 KCTP 241720
TAFUNV
TAF
KUNV 241720Z 2418/2518 03005KT P6SM OVC035
     FM241800 10003KT P6SM BKN040
     FM250800 18005KT P6SM OVC050=



000
FTUS41 KCTP 241720
TAFAOO
TAF
KAOO 241720Z 2418/2518 05005KT P6SM OVC035
     FM242000 10005KT P6SM BKN040
     FM250600 17005KT P6SM OVC040
     FM251500 17008KT 5SM -RA OVC025=



000
FTUS41 KCTP 241720
TAFAOO
TAF
KAOO 241720Z 2418/2518 05005KT P6SM OVC035
     FM241800 10005KT P6SM BKN040
     FM250600 17005KT P6SM OVC040=



000
FTUS41 KCTP 241720
TAFBFD
TAF
KBFD 241720Z 2418/2518 08005KT P6SM SCT100
     FM250600 15010KT P6SM OVC050=



000
FTUS41 KCTP 241720
TAFBFD
TAF
KBFD 241720Z 2418/2518 VRB03KT P6SM SCT100
     FM250600 15010KT P6SM OVC050
     FM251500 15012G19KT 4SM -RA OVC015=



000
FTUS41 KCTP 241720
TAFIPT
TAF
KIPT 241720Z 2418/2518 VRB03KT P6SM SKC
     FM251000 09003KT P6SM BKN050=



000
FTUS41 KCTP 241720
TAFUNV
TAF
KUNV 241720Z 2418/2518 03005KT P6SM OVC035
     FM241800 10003KT P6SM BKN040
     FM250800 18005KT P6SM OVC050=



000
FTUS41 KCTP 241720
TAFJST
TAF
KJST 241720Z 2418/2518 12005KT P6SM OVC025
     FM241900 15005KT P6SM BKN035=



000
FTUS41 KCTP 241720
TAFUNV
TAF
KUNV 241720Z 2418/2518 03005KT P6SM OVC035
     FM241800 10003KT P6SM BKN040
     FM250800 18005KT P6SM OVC050=



000
FTUS41 KCTP 241720
TAFBFD
TAF
KBFD 241720Z 2418/2518 08005KT P6SM SCT100
     FM250600 15010KT P6SM OVC050=



000
FTUS41 KCTP 241720
TAFAOO
TAF
KAOO 241720Z 2418/2518 05005KT P6SM OVC035
     FM242000 10005KT P6SM BKN040
     FM250600 17005KT P6SM OVC040
     FM251500 17008KT 5SM -RA OVC025=



000
FTUS41 KCTP 241720
TAFMDT
TAF
KMDT 241720Z 2418/2518 05003KT P6SM OVC050
     FM242200 14003KT P6SM SCT050
     FM250900 14003KT P6SM OVC050=



000
FTUS41 KCTP 241720
TAFAOO
TAF
KAOO 241720Z 2418/2518 05005KT P6SM OVC035
     FM241800 10005KT P6SM BKN040
     FM250600 17005KT P6SM OVC040=



000
FTUS41 KCTP 241720
TAFBFD
TAF
KBFD 241720Z 2418/2518 VRB03KT P6SM SCT100
     FM250600 15010KT P6SM OVC050
     FM251500 15012G19KT 4SM -RA OVC015=



000
FTUS41 KCTP 241720
TAFJST
TAF
KJST 241720Z 2418/2518 12005KT P6SM OVC020
     FM242000 15005KT P6SM SCT025 BKN035
     FM250600 15010KT P6SM OVC030
     FM251500 17011G18KT 1 1/2SM -RA OVC015=



000
FTUS41 KCTP 241720
TAFJST
TAF
KJST 241720Z 2418/2518 12005KT P6SM OVC025
     FM241900 15005KT P6SM BKN035=



000
FTUS41 KCTP 241720
TAFIPT
TAF
KIPT 241720Z 2418/2518 VRB03KT P6SM SKC
     FM251000 09003KT P6SM BKN050=



000
FTUS41 KCTP 241720
TAFUNV
TAF
KUNV 241720Z 2418/2518 05005KT P6SM OVC035
     FM242100 VRB03KT P6SM SCT050
     FM251500 17008KT 6SM -RA OVC025=



000
FTUS41 KCTP 241140
TAFAOO
TAF
KAOO 241140Z 2412/2512 05005KT P6SM OVC035
     FM241800 10005KT P6SM BKN040
     FM242100 14005KT P6SM SCT050
     FM250600 17005KT P6SM OVC040=



000
FTUS41 KCTP 241140
TAFMDT
TAF
KMDT 241140Z 2412/2512 05003KT P6SM OVC050
     FM241800 VRB03KT P6SM BKN050
     FM242200 14003KT P6SM SCT050
     FM250900 14003KT P6SM OVC050=



000
FTUS41 KCTP 241140
TAFJST
TAF
KJST 241140Z 2412/2512 12005KT P6SM OVC020
     FM241800 15005KT P6SM BKN035
     FM242100 15005KT P6SM SCT040
     FM250600 15010KT P6SM OVC030=



000
FTUS41 KCTP 241140
TAFIPT
TAF
KIPT 241140Z 2412/2512 34005KT P6SM SCT100
     FM241700 VRB03KT P6SM SKC
     FM251000 09003KT P6SM BKN050=



000
FTUS41 KCTP 241140
TAFUNV
TAF
KUNV 241140Z 2412/2512 05005KT P6SM OVC050
     FM241700 10003KT P6SM BKN050
     FM242100 VRB03KT P6SM SCT050
     FM250800 18005KT P6SM OVC050=



000
FTUS41 KCTP 241140
TAFJST
TAF
KJST 241140Z 2412/2512 12005KT P6SM OVC020
     FM241800 15005KT P6SM BKN035
     FM242100 15005KT P6SM SCT040
     FM250600 15010KT P6SM OVC030=



000
FTUS41 KCTP 241140
TAFIPT
TAF
KIPT 241140Z 2412/2512 34005KT P6SM SCT100
     FM241700 VRB03KT P6SM SKC
     FM251000 09003KT P6SM BKN050=



000
FTUS41 KCTP 241140
TAFUNV
TAF
KUNV 241140Z 2412/2512 05005KT P6SM OVC050
     FM241700 10003KT P6SM BKN050
     FM242100 VRB03KT P6SM SCT050
     FM250800 18005KT P6SM OVC050=



000
FTUS41 KCTP 241140
TAFAOO
TAF
KAOO 241140Z 2412/2512 05005KT P6SM OVC035
     FM241800 10005KT P6SM BKN040
     FM242100 14005KT P6SM SCT050
     FM250600 17005KT P6SM OVC040=



000
FTUS41 KCTP 241140
TAFMDT
TAF
KMDT 241140Z 2412/2512 05003KT P6SM OVC050
     FM241800 VRB03KT P6SM BKN050
     FM242200 14003KT P6SM SCT050
     FM250900 14003KT P6SM OVC050=



000
FTUS41 KCTP 241140
TAFBFD
TAF
KBFD 241140Z 2412/2512 08005KT P6SM SCT100
     FM241500 11005KT P6SM SKC
     FM250600 15010KT P6SM OVC050=



000
FTUS41 KCTP 241140
TAFBFD
TAF
KBFD 241140Z 2412/2512 08005KT P6SM SCT100
     FM241500 11005KT P6SM SKC
     FM250600 15010KT P6SM OVC050=



000
FTUS41 KCTP 241140
TAFIPT
TAF
KIPT 241140Z 2412/2512 34005KT P6SM SCT100
     FM241700 VRB03KT P6SM SKC
     FM251000 09003KT P6SM BKN050=



000
FTUS41 KCTP 241140
TAFJST
TAF
KJST 241140Z 2412/2512 12005KT P6SM OVC020
     FM241800 15005KT P6SM BKN035
     FM242100 15005KT P6SM SCT040
     FM250600 15010KT P6SM OVC030=



000
FTUS41 KCTP 241140
TAFUNV
TAF
KUNV 241140Z 2412/2512 05005KT P6SM OVC050
     FM241700 10003KT P6SM BKN050
     FM242100 VRB03KT P6SM SCT050
     FM250800 18005KT P6SM OVC050=



000
FTUS41 KCTP 241140
TAFBFD
TAF
KBFD 241140Z 2412/2512 08005KT P6SM SCT100
     FM241500 11005KT P6SM SKC
     FM250600 15010KT P6SM OVC050=



000
FTUS41 KCTP 241140
TAFIPT
TAF
KIPT 241140Z 2412/2512 34005KT P6SM SCT100
     FM241700 VRB03KT P6SM SKC
     FM251000 09003KT P6SM BKN050=



000
FTUS41 KCTP 241140
TAFAOO
TAF
KAOO 241140Z 2412/2512 05005KT P6SM OVC035
     FM241800 10005KT P6SM BKN040
     FM242100 14005KT P6SM SCT050
     FM250600 17005KT P6SM OVC040=



000
FTUS41 KCTP 241140
TAFMDT
TAF
KMDT 241140Z 2412/2512 05003KT P6SM OVC050
     FM241800 VRB03KT P6SM BKN050
     FM242200 14003KT P6SM SCT050
     FM250900 14003KT P6SM OVC050=



000
FTUS41 KCTP 241140
TAFUNV
TAF
KUNV 241140Z 2412/2512 05005KT P6SM OVC050
     FM241700 10003KT P6SM BKN050
     FM242100 VRB03KT P6SM SCT050
     FM250800 18005KT P6SM OVC050=



000
FTUS41 KCTP 241140
TAFJST
TAF
KJST 241140Z 2412/2512 12005KT P6SM OVC020
     FM241800 15005KT P6SM BKN035
     FM242100 15005KT P6SM SCT040
     FM250600 15010KT P6SM OVC030=



000
FTUS41 KCTP 241140
TAFMDT
TAF
KMDT 241140Z 2412/2512 05003KT P6SM OVC050
     FM241800 VRB03KT P6SM BKN050
     FM242200 14003KT P6SM SCT050
     FM250900 14003KT P6SM OVC050=



000
FTUS41 KCTP 241140
TAFAOO
TAF
KAOO 241140Z 2412/2512 05005KT P6SM OVC035
     FM241800 10005KT P6SM BKN040
     FM242100 14005KT P6SM SCT050
     FM250600 17005KT P6SM OVC040=



000
FTUS41 KCTP 241140
TAFBFD
TAF
KBFD 241140Z 2412/2512 08005KT P6SM SCT100
     FM241500 11005KT P6SM SKC
     FM250600 15010KT P6SM OVC050=



000
FTUS41 KCTP 240936 AAA
TAFUNV
TAF AMD
KUNV 240936Z 2410/2506 05005KT P6SM OVC050
     FM241700 10003KT P6SM BKN050
     FM242100 15003KT P6SM SCT050=



000
FTUS41 KCTP 240936 AAB
TAFAOO
TAF AMD
KAOO 240936Z 2410/2506 05005KT P6SM OVC025
     FM241800 10005KT P6SM BKN045
     FM242100 14005KT P6SM SCT050=



000
FTUS41 KCTP 240936 AAA
TAFJST
TAF AMD
KJST 240936Z 2410/2506 11005KT P6SM OVC020
     FM241800 15005KT P6SM BKN040
     FM242100 15005KT P6SM SCT050=



000
FTUS41 KCTP 240936 AAA
TAFBFD
TAF AMD
KBFD 240936Z 2410/2506 08005KT P6SM SCT050
     FM241800 11005KT P6SM SKC=



000
FTUS41 KCTP 240936 AAA
TAFIPT
TAF AMD
KIPT 240936Z 2410/2506 01005KT P6SM OVC100
     FM241600 VRB03KT P6SM BKN100
     FM242000 09003KT P6SM SCT100=



000
FTUS41 KCTP 240936 AAA
TAFUNV
TAF AMD
KUNV 240936Z 2410/2506 05005KT P6SM OVC050
     FM241700 10003KT P6SM BKN050
     FM242100 15003KT P6SM SCT050=



000
FTUS41 KCTP 240936 AAB
TAFAOO
TAF AMD
KAOO 240936Z 2410/2506 05005KT P6SM OVC025
     FM241800 10005KT P6SM BKN045
     FM242100 14005KT P6SM SCT050=



000
FTUS41 KCTP 240936 AAA
TAFMDT
TAF AMD
KMDT 240936Z 2410/2506 05003KT P6SM OVC050
     FM241800 VRB03KT P6SM BKN050
     FM242200 14003KT P6SM SCT050=



000
FTUS41 KCTP 240936 AAA
TAFMDT
TAF AMD
KMDT 240936Z 2410/2506 05003KT P6SM OVC050
     FM241800 VRB03KT P6SM BKN050
     FM242200 14003KT P6SM SCT050=



000
FTUS41 KCTP 240936 AAA
TAFBFD
TAF AMD
KBFD 240936Z 2410/2506 08005KT P6SM SCT050
     FM241800 11005KT P6SM SKC=



000
FTUS41 KCTP 240936 AAA
TAFIPT
TAF AMD
KIPT 240936Z 2410/2506 01005KT P6SM OVC100
     FM241600 VRB03KT P6SM BKN100
     FM242000 09003KT P6SM SCT100=



000
FTUS41 KCTP 240936 AAA
TAFJST
TAF AMD
KJST 240936Z 2410/2506 11005KT P6SM OVC020
     FM241800 15005KT P6SM BKN040
     FM242100 15005KT P6SM SCT050=



000
FTUS41 KCTP 240621 AAA
TAFAOO
TAF AMD
KAOO 240621Z 2406/2506 07003KT 4SM -SN OVC035
     FM240700 04003KT P6SM OVC035
     FM241700 10005KT P6SM BKN045
     FM242100 14005KT P6SM SCT050=



000
FTUS41 KCTP 240621 AAA
TAFAOO
TAF AMD
KAOO 240621Z 2406/2506 07003KT 4SM -SN OVC035
     FM240700 04003KT P6SM OVC035
     FM241700 10005KT P6SM BKN045
     FM242100 14005KT P6SM SCT050=



000
FTUS41 KCTP 240621 AAA
TAFAOO
TAF AMD
KAOO 240621Z 2406/2506 07003KT 4SM -SN OVC035
     FM240700 04003KT P6SM OVC035
     FM241700 10005KT P6SM BKN045
     FM242100 14005KT P6SM SCT050=



000
FTUS41 KCTP 240543
TAFJST
TAF
KJST 240543Z 2406/2506 07005KT 5SM -SN OVC035
     FM240600 08005KT 4SM BR OVC025
     FM241200 14005KT P6SM OVC030
     FM241700 15005KT P6SM BKN040
     FM242100 15005KT P6SM SCT050=



000
FTUS41 KCTP 240543
TAFMDT
TAF
KMDT 240543Z 2406/2506 05003KT P6SM OVC050
     FM241800 VRB03KT P6SM BKN050
     FM242200 14003KT P6SM SCT050=



000
FTUS41 KCTP 240543
TAFBFD
TAF
KBFD 240543Z 2406/2506 06005KT P6SM OVC100
     FM241200 09003KT P6SM SCT100
     FM241800 12003KT P6SM FEW250=



000
FTUS41 KCTP 240543
TAFUNV
TAF
KUNV 240543Z 2406/2506 05003KT P6SM OVC040
     FM241700 10003KT P6SM BKN050
     FM242100 15003KT P6SM SCT050=



000
FTUS41 KCTP 240543
TAFAOO
TAF
KAOO 240543Z 2406/2506 03003KT 2SM -SN OVC035
     FM240615 06003KT 4SM BR OVC035
     FM241700 10005KT P6SM BKN045
     FM242100 14005KT P6SM SCT050=



000
FTUS41 KCTP 240543
TAFAOO
TAF
KAOO 240543Z 2406/2506 03003KT 2SM -SN OVC035
     FM240615 06003KT 4SM BR OVC035
     FM241700 10005KT P6SM BKN045
     FM242100 14005KT P6SM SCT050=



000
FTUS41 KCTP 240543
TAFIPT
TAF
KIPT 240543Z 2406/2506 01005KT P6SM OVC100
     FM241600 VRB03KT P6SM BKN100
     FM242000 09003KT P6SM SCT100=



000
FTUS41 KCTP 240543
TAFJST
TAF
KJST 240543Z 2406/2506 07005KT 5SM -SN OVC035
     FM240600 08005KT 4SM BR OVC025
     FM241200 14005KT P6SM OVC030
     FM241700 15005KT P6SM BKN040
     FM242100 15005KT P6SM SCT050=



000
FTUS41 KCTP 240543
TAFMDT
TAF
KMDT 240543Z 2406/2506 05003KT P6SM OVC050
     FM241800 VRB03KT P6SM BKN050
     FM242200 14003KT P6SM SCT050=



000
FTUS41 KCTP 240543
TAFBFD
TAF
KBFD 240543Z 2406/2506 06005KT P6SM OVC100
     FM241200 09003KT P6SM SCT100
     FM241800 12003KT P6SM FEW250=



000
FTUS41 KCTP 240543
TAFIPT
TAF
KIPT 240543Z 2406/2506 01005KT P6SM OVC100
     FM241600 VRB03KT P6SM BKN100
     FM242000 09003KT P6SM SCT100=



000
FTUS41 KCTP 240543
TAFUNV
TAF
KUNV 240543Z 2406/2506 05003KT P6SM OVC040
     FM241700 10003KT P6SM BKN050
     FM242100 15003KT P6SM SCT050=



000
FTUS41 KCTP 240543
TAFAOO
TAF
KAOO 240543Z 2406/2506 03003KT 2SM -SN OVC035
     FM240615 06003KT 4SM BR OVC035
     FM241700 10005KT P6SM BKN045
     FM242100 14005KT P6SM SCT050=



000
FTUS41 KCTP 240543
TAFMDT
TAF
KMDT 240543Z 2406/2506 05003KT P6SM OVC050
     FM241800 VRB03KT P6SM BKN050
     FM242200 14003KT P6SM SCT050=



000
FTUS41 KCTP 240543
TAFJST
TAF
KJST 240543Z 2406/2506 07005KT 5SM -SN OVC035
     FM240600 08005KT 4SM BR OVC025
     FM241200 14005KT P6SM OVC030
     FM241700 15005KT P6SM BKN040
     FM242100 15005KT P6SM SCT050=



000
FTUS41 KCTP 240543
TAFUNV
TAF
KUNV 240543Z 2406/2506 05003KT P6SM OVC040
     FM241700 10003KT P6SM BKN050
     FM242100 15003KT P6SM SCT050=



000
FTUS41 KCTP 240543
TAFIPT
TAF
KIPT 240543Z 2406/2506 01005KT P6SM OVC100
     FM241600 VRB03KT P6SM BKN100
     FM242000 09003KT P6SM SCT100=



000
FTUS41 KCTP 240543
TAFBFD
TAF
KBFD 240543Z 2406/2506 06005KT P6SM OVC100
     FM241200 09003KT P6SM SCT100
     FM241800 12003KT P6SM FEW250=



000
FTUS41 KCTP 240543
TAFAOO
TAF
KAOO 240543Z 2406/2506 03003KT 2SM -SN OVC035
     FM240615 06003KT 4SM BR OVC035
     FM241700 10005KT P6SM BKN045
     FM242100 14005KT P6SM SCT050=



000
FTUS41 KCTP 240543
TAFMDT
TAF
KMDT 240543Z 2406/2506 05003KT P6SM OVC050
     FM241800 VRB03KT P6SM BKN050
     FM242200 14003KT P6SM SCT050=



000
FTUS41 KCTP 240543
TAFUNV
TAF
KUNV 240543Z 2406/2506 05003KT P6SM OVC040
     FM241700 10003KT P6SM BKN050
     FM242100 15003KT P6SM SCT050=



000
FTUS41 KCTP 240543
TAFIPT
TAF
KIPT 240543Z 2406/2506 01005KT P6SM OVC100
     FM241600 VRB03KT P6SM BKN100
     FM242000 09003KT P6SM SCT100=



000
FTUS41 KCTP 240543
TAFJST
TAF
KJST 240543Z 2406/2506 07005KT 5SM -SN OVC035
     FM240600 08005KT 4SM BR OVC025
     FM241200 14005KT P6SM OVC030
     FM241700 15005KT P6SM BKN040
     FM242100 15005KT P6SM SCT050=



000
FTUS41 KCTP 240543
TAFBFD
TAF
KBFD 240543Z 2406/2506 06005KT P6SM OVC100
     FM241200 09003KT P6SM SCT100
     FM241800 12003KT P6SM FEW250=



    US Dept of Commerce
    National Oceanic and Atmospheric Administration
    National Weather Service
    1325 East West Highway
    Silver Spring, MD 20910
    Page Author: NWS Internet Services Team
Disclaimer
Information Quality
Credits
Glossary
Privacy Policy
Freedom of Information Act (FOIA)
About Us
Career Opportunities